M I D A S
Marine Information and Data Acquisition System
Tripno 1685 of the Zeeleeuw from 2009-04-30 07:18:56 to 2009-04-30 13:35:03
Back to CruiseResearch ActivitiesStationsMapUnderway DataData graphs

EquipmentUnitsComment
TimeDGPSUTC
LatitudeDGPSDM.mWGS84
LongitudeDGPSDM.mWGS84
TemperatureSBE03/SBE38deg celciusITS90
ConductivitySBE21S/mITS90
SalinitySBE21 Practical Salinity Units
ChlorophylAChelsea fluorimeterg/lCalibrated in Aceton
Missing or incorrect values are displayed as -999
Sea surface data collected by the RV Zeeleeuw from 2009-04-30 07:12:34 to 2009-04-30 13:46:19
                                                                                    Next 1000 lines
Time Latitude Longitude Temperature Conductivity Salinity ChlorophylA
2009-04-30 07:12:44 51°13.662 2°55.956 -999 0.04231 0.214443 -1.035392
2009-04-30 07:12:49 51°13.662 2°55.955 -999 0.042207 0.213911 -1.070216
2009-04-30 07:12:54 51°13.662 2°55.953 -999 0.042207 0.213911 -1.070216
2009-04-30 07:12:59 51°13.663 2°55.951 -999 0.04231 0.214436 -1.070216
2009-04-30 07:13:03 51°13.664 2°55.949 -999 0.042413 0.214968 -1.070216
2009-04-30 07:13:09 51°13.664 2°55.946 -999 0.042619 0.216029 -1.070216
2009-04-30 07:13:14 51°13.665 2°55.943 -999 0.042619 0.216036 -1.070216
2009-04-30 07:13:19 51°13.665 2°55.94 -999 0.042619 0.216036 -1.070216
2009-04-30 07:13:24 51°13.666 2°55.937 -999 0.042825 0.217101 -1.035392
2009-04-30 07:13:30 51°13.668 2°55.933 -999 0.042619 0.216039 -1.035392
2009-04-30 07:13:35 51°13.67 2°55.929 -999 0.042516 0.215507 -1.035392
2009-04-30 07:13:41 51°13.671 2°55.925 -999 0.042516 0.215507 -1.070216
2009-04-30 07:13:47 51°13.672 2°55.92 -999 0.042516 0.215507 -1.035392
2009-04-30 07:13:52 51°13.673 2°55.916 -999 0.042516 0.215507 -1.035392
2009-04-30 07:13:58 51°13.674 2°55.91 -999 0.042516 0.21551 -1.035392
2009-04-30 07:14:02 51°13.675 2°55.907 -999 0.042619 0.216039 -1.035392
2009-04-30 07:14:07 51°13.676 2°55.902 -999 0.042413 0.214978 -1.070216
2009-04-30 07:14:13 51°13.677 2°55.896 -999 0.042516 0.21551 -1.070216
2009-04-30 07:14:17 51°13.678 2°55.892 -999 0.042516 0.215507 -1.035392
2009-04-30 07:14:23 51°13.679 2°55.886 -999 0.042516 0.215507 -1.035392
2009-04-30 07:14:27 51°13.68 2°55.882 -999 0.042516 0.215507 -1.035392
2009-04-30 07:14:33 51°13.681 2°55.875 -999 0.042516 0.215507 -1.070216
2009-04-30 07:14:38 51°13.682 2°55.869 -999 0.042516 0.215507 -1.070216
2009-04-30 07:14:42 51°13.683 2°55.865 -999 0.042413 0.214975 -1.035392
2009-04-30 07:14:47 51°13.684 2°55.859 -999 0.042413 0.214975 -1.035392
2009-04-30 07:14:53 51°13.685 2°55.851 -999 0.042413 0.214975 -1.035392
2009-04-30 07:14:58 51°13.686 2°55.845 -999 0.042413 0.214975 -1.070216
2009-04-30 07:15:02 51°13.686 2°55.84 -999 0.042722 0.216565 -1.070216
2009-04-30 07:15:07 51°13.687 2°55.833 -999 0.042516 0.215507 -1.070216
2009-04-30 07:15:13 51°13.688 2°55.825 -999 0.042516 0.215507 -1.035392
2009-04-30 07:15:18 51°13.689 2°55.818 -999 0.042516 0.21551 -1.070216
2009-04-30 07:15:22 51°13.689 2°55.812 -999 0.042516 0.21551 -1.070216
2009-04-30 07:15:27 51°13.69 2°55.805 -999 0.042516 0.21551 -1.070216
2009-04-30 07:15:33 51°13.691 2°55.798 -999 0.042722 0.216572 -1.035392
2009-04-30 07:15:38 51°13.692 2°55.791 -999 0.042619 0.216043 -1.035392
2009-04-30 07:15:42 51°13.692 2°55.787 -999 0.042722 0.216572 -1.035392
2009-04-30 07:15:47 51°13.692 2°55.781 -999 0.042722 0.216572 -1.035392
2009-04-30 07:15:52 51°13.692 2°55.776 -999 0.042722 0.216572 -1.035392
2009-04-30 07:15:58 51°13.692 2°55.77 -999 0.042722 0.216572 -1.035392
2009-04-30 07:16:02 51°13.692 2°55.766 -999 0.042825 0.217101 -1.035392
2009-04-30 07:16:07 51°13.692 2°55.761 -999 0.042825 0.217101 -1.035392
2009-04-30 07:16:12 51°13.693 2°55.758 -999 0.043133 0.218695 -1.070216
2009-04-30 07:16:17 51°13.693 2°55.756 -999 0.043339 0.219757 -1.035392
2009-04-30 07:16:22 51°13.694 2°55.754 -999 0.043957 0.222946 -1.035392
2009-04-30 07:16:27 51°13.694 2°55.754 -999 0.043957 0.222946 -1.035392
2009-04-30 07:16:31 51°13.695 2°55.755 -999 0.044162 0.224013 -1.035392
2009-04-30 07:16:36 51°13.696 2°55.756 -999 0.044471 0.22561 -1.070216
2009-04-30 07:16:41 51°13.698 2°55.758 -999 0.044574 0.226141 -1.035392
2009-04-30 07:16:47 51°13.7 2°55.76 -999 0.044883 0.227739 -1.070216
2009-04-30 07:16:51 51°13.702 2°55.762 -999 0.044883 0.227739 -1.070216
2009-04-30 07:16:56 51°13.704 2°55.764 -999 0.043236 0.219245 -1.070216
2009-04-30 07:17:01 51°13.707 2°55.765 -999 0.043236 0.219232 -1.070216
2009-04-30 07:17:06 51°13.709 2°55.766 -999 0.043031 0.218159 -1.035392
2009-04-30 07:17:11 51°13.711 2°55.767 -999 0.042928 0.217623 -1.035392
2009-04-30 07:17:16 51°13.713 2°55.768 -999 0.042825 0.217084 -1.070216
2009-04-30 07:17:21 51°13.714 2°55.768 -999 0.042825 0.217084 -1.070216
2009-04-30 07:17:26 51°13.715 2°55.768 -999 0.043031 0.218142 -1.035392
2009-04-30 07:17:31 51°13.715 2°55.767 -999 0.041693 0.211262 -1.035392
2009-04-30 07:17:36 51°13.715 2°55.767 -999 0.042516 0.215487 -1.070216
2009-04-30 07:17:41 51°13.715 2°55.767 -999 0.042001 0.212847 -1.035392
2009-04-30 07:17:46 51°13.714 2°55.767 -999 0.042825 0.217084 -1.070216
2009-04-30 07:17:51 51°13.713 2°55.766 -999 0.042722 0.216562 -1.035392
2009-04-30 07:17:56 51°13.711 2°55.766 -999 0.042722 0.216562 -1.035392
2009-04-30 07:18:02 51°13.709 2°55.765 -999 0.042516 0.2155 -1.035392
2009-04-30 07:18:07 51°13.707 2°55.765 -999 0.042928 0.217623 -1.070216
2009-04-30 07:18:12 51°13.706 2°55.765 -999 0.042928 0.217627 -1.070216
2009-04-30 07:18:18 51°13.704 2°55.765 -999 0.043442 0.22028 -1.070216
2009-04-30 07:18:22 51°13.704 2°55.765 -999 0.043442 0.22028 -1.070216
2009-04-30 07:18:27 51°13.705 2°55.764 -999 0.044677 0.226653 -1.035392
2009-04-30 07:18:33 51°13.707 2°55.763 -999 0.044986 0.228255 -1.035392
2009-04-30 07:18:38 51°13.709 2°55.761 -999 0.044883 0.227736 -1.035392
2009-04-30 07:18:42 51°13.711 2°55.76 -999 0.04478 0.227205 -1.070216
2009-04-30 07:18:47 51°13.715 2°55.756 -999 0.044162 0.224016 -1.070216
2009-04-30 07:18:52 51°13.719 2°55.752 -999 0.044162 0.224016 -1.070216
2009-04-30 07:18:57 51°13.724 2°55.748 -999 0.043854 0.222416 -1.035392
2009-04-30 07:19:02 51°13.729 2°55.743 -999 0.043957 0.222939 -1.035392
2009-04-30 07:19:07 51°13.734 2°55.737 -999 0.043545 0.220813 -1.070216
2009-04-30 07:19:12 51°13.739 2°55.731 -999 0.043339 0.219744 -1.070216
2009-04-30 07:19:17 51°13.745 2°55.724 -999 0.043236 0.219204 -1.070216
2009-04-30 07:19:22 51°13.751 2°55.716 -999 0.043236 0.219204 -1.070216
2009-04-30 07:19:27 51°13.756 2°55.709 -999 0.043031 0.218139 -1.070216
2009-04-30 07:19:32 51°13.762 2°55.703 -999 0.042825 0.21708 -1.070216
2009-04-30 07:19:37 51°13.768 2°55.696 -999 0.042619 0.216022 -1.035392
2009-04-30 07:19:42 51°13.774 2°55.69 -999 0.042619 0.216022 -1.035392
2009-04-30 07:19:47 51°13.78 2°55.684 -999 0.042722 0.216555 -1.035392
2009-04-30 07:19:52 51°13.786 2°55.678 -999 0.042516 0.2155 -1.070216
2009-04-30 07:19:57 51°13.792 2°55.672 -999 0.042516 0.2155 -1.070216
2009-04-30 07:20:02 51°13.798 2°55.667 -999 0.042516 0.2155 -1.035392
2009-04-30 07:20:07 51°13.804 2°55.662 -999 0.042722 0.216562 -1.035392
2009-04-30 07:20:12 51°13.81 2°55.657 -999 0.042722 0.216562 -1.035392
2009-04-30 07:20:17 51°13.816 2°55.653 -999 0.042722 0.216565 -1.070216
2009-04-30 07:20:22 51°13.822 2°55.649 -999 0.042722 0.216565 -1.070216
2009-04-30 07:20:27 51°13.828 2°55.645 -999 0.042619 0.216036 -1.035392
2009-04-30 07:20:32 51°13.835 2°55.642 -999 0.042619 0.216036 -1.070216
2009-04-30 07:20:37 51°13.841 2°55.639 -999 0.043236 0.219214 -1.035392
2009-04-30 07:20:42 51°13.848 2°55.635 -999 0.043751 0.221876 -1.070216
2009-04-30 07:20:47 51°13.856 2°55.632 -999 0.043236 0.219228 -1.070216
2009-04-30 07:20:51 51°13.863 2°55.629 -999 0.043236 0.219228 -1.070216
2009-04-30 07:20:56 51°13.872 2°55.625 -999 0.043339 0.219754 -1.035392
2009-04-30 07:21:02 51°13.883 2°55.62 -999 0.043236 0.219228 -1.070216
2009-04-30 07:21:07 51°13.893 2°55.617 -999 0.043236 0.219225 -1.035392
2009-04-30 07:21:13 51°13.904 2°55.611 -999 0.043031 0.218166 -1.035392
2009-04-30 07:21:18 51°13.914 2°55.606 -999 0.043339 0.219757 -1.070216
2009-04-30 07:21:22 51°13.921 2°55.602 -999 0.043339 0.219757 -1.070216
2009-04-30 07:21:27 51°13.931 2°55.596 -999 0.043236 0.219232 -1.035392
2009-04-30 07:21:33 51°13.942 2°55.589 -999 0.043236 0.219232 -1.035392
2009-04-30 07:21:37 51°13.95 2°55.583 -999 0.043339 0.219764 -1.035392
2009-04-30 07:21:42 51°13.959 2°55.576 -999 0.043236 0.219238 -1.070216
2009-04-30 07:21:47 51°13.968 2°55.568 -999 0.042928 0.217644 -1.035392
2009-04-30 07:21:52 51°13.978 2°55.56 -999 0.042619 0.21605 -1.035392
2009-04-30 07:21:57 51°13.987 2°55.552 -999 0.042619 0.21605 -1.035392
2009-04-30 07:22:02 51°13.996 2°55.544 -999 0.042825 0.217104 -1.070216
2009-04-30 07:22:07 51°14.005 2°55.536 -999 0.042722 0.216575 -1.035392
2009-04-30 07:22:12 51°14.015 2°55.527 -999 0.042516 0.21551 -1.070216
2009-04-30 07:22:17 51°14.024 2°55.519 -999 0.042928 0.21763 -1.035392
2009-04-30 07:22:22 51°14.034 2°55.51 -999 0.042928 0.21763 -1.035392
2009-04-30 07:22:27 51°14.044 2°55.501 -999 0.043133 0.218695 -1.035392
2009-04-30 07:22:32 51°14.054 2°55.491 -999 0.042104 0.213402 -1.070216
2009-04-30 07:22:37 51°14.064 2°55.481 -999 0.043031 0.218159 -1.070216
2009-04-30 07:22:42 51°14.075 2°55.471 -999 0.042722 0.216582 -1.035392
2009-04-30 07:22:47 51°14.086 2°55.461 -999 0.042104 0.213402 -1.070216
2009-04-30 07:22:51 51°14.095 2°55.452 -999 0.042104 0.213402 -1.070216
2009-04-30 07:22:57 51°14.109 2°55.439 -999 0.042825 0.217104 -1.035392
2009-04-30 07:23:02 51°14.12 2°55.428 -999 0.042722 0.216579 -1.070216
2009-04-30 07:23:07 51°14.131 2°55.416 -999 0.041899 0.212342 -1.035392
2009-04-30 07:23:11 51°14.141 2°55.407 -999 0.042722 0.216575 -1.070216
2009-04-30 07:23:16 51°14.152 2°55.396 -999 0.04231 0.214463 -1.035392
2009-04-30 07:23:21 51°14.164 2°55.384 -999 0.042001 0.212874 -1.070216
2009-04-30 07:23:27 51°14.178 2°55.37 -999 0.042001 0.212874 -1.070216
2009-04-30 07:23:31 51°14.187 2°55.36 -999 0.042928 0.21764 -1.070216
2009-04-30 07:23:36 51°14.199 2°55.347 -999 0.042413 0.214999 -1.035392
2009-04-30 07:23:41 51°14.21 2°55.334 -999 0.042722 0.216592 -1.070216
2009-04-30 07:23:46 51°14.222 2°55.32 -999 0.042928 0.217654 -1.070216
2009-04-30 07:23:51 51°14.233 2°55.305 -999 0.042928 0.217654 -1.070216
2009-04-30 07:23:56 51°14.244 2°55.289 -999 0.043442 0.220308 -1.070216
2009-04-30 07:24:01 51°14.254 2°55.272 -999 0.043751 0.221907 -1.035392
2009-04-30 07:24:06 51°14.265 2°55.254 -999 0.043339 0.219782 -1.035392
2009-04-30 07:24:11 51°14.275 2°55.236 -999 0.041487 0.210252 -1.035392
2009-04-30 07:24:15 51°14.283 2°55.221 -999 0.042722 0.216585 -1.070216
2009-04-30 07:24:20 51°14.294 2°55.201 -999 0.042722 0.216585 -1.070216
2009-04-30 07:24:25 51°14.305 2°55.181 -999 0.042207 0.213938 -1.035392
2009-04-30 07:24:31 51°14.317 2°55.156 -999 0.042619 0.21605 -1.070216
2009-04-30 07:24:35 51°14.325 2°55.14 -999 0.041178 0.208635 -1.070216
2009-04-30 07:24:40 51°14.335 2°55.119 -999 0.042516 0.215507 -1.070216
2009-04-30 07:24:45 51°14.346 2°55.098 -999 0.043031 0.218173 -1.070216
2009-04-30 07:24:50 51°14.354 2°55.076 -999 0.043031 0.218173 -1.070216
2009-04-30 07:24:55 51°14.363 2°55.053 -999 0.041693 0.211308 -1.035392
2009-04-30 07:25:00 51°14.371 2°55.029 -999 0.040869 0.207061 -1.035392
2009-04-30 07:25:05 51°14.379 2°55.006 -999 0.04231 0.21446 -1.035392
2009-04-30 07:25:10 51°14.387 2°54.983 -999 0.040972 0.207582 -1.035392
2009-04-30 07:25:15 51°14.394 2°54.959 -999 0.042619 0.216026 -1.035392
2009-04-30 07:25:19 51°14.401 2°54.94 -999 0.041693 0.211285 -1.070216
2009-04-30 07:25:24 51°14.409 2°54.917 -999 0.041693 0.211285 -1.070216
2009-04-30 07:25:29 51°14.417 2°54.893 -999 0.040355 0.204413 -1.070216
2009-04-30 07:25:34 51°14.425 2°54.869 -999 0.041178 0.208625 -1.070216
2009-04-30 07:25:39 51°14.433 2°54.845 -999 0.039943 0.202292 -1.070216
2009-04-30 07:25:44 51°14.442 2°54.822 -999 0.040252 0.203877 -1.070216
2009-04-30 07:25:49 51°14.451 2°54.799 -999 0.040252 0.203877 -1.070216
2009-04-30 07:25:54 51°14.46 2°54.776 -999 0.041796 0.21183 -1.035392
2009-04-30 07:25:59 51°14.469 2°54.753 -999 0.041487 0.210252 -1.070216
2009-04-30 07:26:04 51°14.478 2°54.73 -999 0.039943 0.20233 -1.070216
2009-04-30 07:26:09 51°14.487 2°54.707 -999 0.041281 0.209192 -1.070216
2009-04-30 07:26:14 51°14.497 2°54.684 -999 0.040252 0.203912 -1.070216
2009-04-30 07:26:19 51°14.506 2°54.661 -999 0.040252 0.203912 -1.070216
2009-04-30 07:26:24 51°14.516 2°54.638 -999 0.040561 0.2055 -1.035392
2009-04-30 07:26:29 51°14.526 2°54.615 -999 0.040149 0.203384 -1.035392
2009-04-30 07:26:34 51°14.535 2°54.593 -999 0.04159 0.210773 -1.035392
2009-04-30 07:26:39 51°14.546 2°54.57 -999 0.040149 0.203391 -1.035392
2009-04-30 07:26:43 51°14.554 2°54.553 -999 0.040252 0.203921 -1.070216
2009-04-30 07:26:49 51°14.565 2°54.525 -999 0.039943 0.202346 -1.035392
2009-04-30 07:26:54 51°14.576 2°54.503 -999 0.039943 0.202346 -1.035392
2009-04-30 07:26:59 51°14.586 2°54.481 -999 0.040869 0.207103 -1.070216
2009-04-30 07:27:04 51°14.597 2°54.46 -999 0.038914 0.197075 -1.070216
2009-04-30 07:27:09 51°14.608 2°54.438 -999 0.03912 0.198109 -1.070216
2009-04-30 07:27:14 51°14.619 2°54.418 -999 0.039326 0.19915 -1.035392
2009-04-30 07:27:19 51°14.631 2°54.399 -999 0.039326 0.19915 -1.035392
2009-04-30 07:27:23 51°14.641 2°54.385 -999 0.040252 0.203889 -1.070216
2009-04-30 07:27:29 51°14.657 2°54.364 -999 0.039223 0.19862 -1.035392
2009-04-30 07:27:34 51°14.67 2°54.348 -999 0.039532 0.200216 -1.035392
2009-04-30 07:27:39 51°14.684 2°54.333 -999 0.038708 0.195998 -1.070216
2009-04-30 07:27:44 51°14.698 2°54.319 -999 0.041899 0.212379 -1.070216
2009-04-30 07:27:49 51°14.713 2°54.306 -999 0.041899 0.212379 -1.070216
2009-04-30 07:27:54 51°14.728 2°54.294 -999 0.041178 0.208706 -1.070216
2009-04-30 07:27:59 51°14.743 2°54.281 -999 0.041075 0.208198 -1.070216
2009-04-30 07:28:04 51°14.757 2°54.267 -999 0.041487 0.210318 -1.035392
2009-04-30 07:28:09 51°14.772 2°54.254 -999 0.041281 0.209241 -1.070216
2009-04-30 07:28:14 51°14.786 2°54.24 -999 0.041796 0.211863 -1.035392
2009-04-30 07:28:19 51°14.801 2°54.227 -999 0.041796 0.211863 -1.035392
2009-04-30 07:28:24 51°14.815 2°54.214 -999 0.041178 0.208671 -1.070216
2009-04-30 07:28:29 51°14.83 2°54.201 -999 0.041281 0.209199 -1.035392
2009-04-30 07:28:34 51°14.845 2°54.188 -999 0.04159 0.21078 -1.070216
2009-04-30 07:28:39 51°14.86 2°54.175 -999 0.040561 0.205497 -1.070216
2009-04-30 07:28:44 51°14.874 2°54.161 -999 0.041384 0.209717 -1.070216
2009-04-30 07:28:49 51°14.889 2°54.148 -999 0.040869 0.207071 -1.035392
2009-04-30 07:28:54 51°14.904 2°54.135 -999 0.040869 0.207071 -1.035392
2009-04-30 07:28:59 51°14.918 2°54.121 -999 0.041384 0.209714 -1.070216
2009-04-30 07:29:03 51°14.93 2°54.11 -999 0.041384 0.20974 -1.070216
2009-04-30 07:29:09 51°14.947 2°54.095 -999 0.041281 0.209251 -1.035392
2009-04-30 07:29:14 51°14.962 2°54.081 -999 0.041281 0.209281 -1.035392
2009-04-30 07:29:19 51°14.977 2°54.068 -999 0.041281 0.209281 -1.035392
2009-04-30 07:29:23 51°14.988 2°54.057 -999 0.040972 0.207702 -1.070216
2009-04-30 07:29:29 51°15.006 2°54.041 -999 0.040458 0.205043 -1.070216
2009-04-30 07:29:34 51°15.021 2°54.028 -999 0.040664 0.206076 -1.070216
2009-04-30 07:29:39 51°15.035 2°54.015 -999 0.040046 0.202901 -1.035392
2009-04-30 07:29:43 51°15.047 2°54.005 -999 0.041178 0.20871 -1.035392
2009-04-30 07:29:49 51°15.065 2°53.99 -999 0.041178 0.20871 -1.035392
2009-04-30 07:29:54 51°15.081 2°53.978 -999 0.041075 0.208191 -1.070216
2009-04-30 07:29:59 51°15.096 2°53.965 -999 0.040767 0.20662 -1.070216
2009-04-30 07:30:04 51°15.111 2°53.953 -999 0.040972 0.207686 -1.035392
2009-04-30 07:30:09 51°15.126 2°53.94 -999 0.041178 0.208752 -1.070216
2009-04-30 07:30:14 51°15.141 2°53.928 -999 0.040767 0.206646 -1.035392
2009-04-30 07:30:19 51°15.156 2°53.916 -999 0.040458 0.205063 -1.070216
2009-04-30 07:30:24 51°15.171 2°53.904 -999 0.040458 0.205063 -1.070216
2009-04-30 07:30:29 51°15.185 2°53.891 -999 0.040458 0.205069 -1.035392
2009-04-30 07:30:34 51°15.2 2°53.878 -999 0.040149 0.203483 -1.070216
2009-04-30 07:30:39 51°15.215 2°53.865 -999 0.040869 0.207194 -1.070216
2009-04-30 07:30:44 51°15.23 2°53.853 -999 0.040767 0.206679 -1.035392
2009-04-30 07:30:49 51°15.245 2°53.841 -999 0.040664 0.20616 -1.070216
2009-04-30 07:30:54 51°15.26 2°53.828 -999 0.040664 0.20616 -1.070216
2009-04-30 07:30:59 51°15.275 2°53.815 -999 0.040561 0.205652 -1.070216
2009-04-30 07:31:03 51°15.287 2°53.805 -999 0.040355 0.204602 -1.070216
2009-04-30 07:31:09 51°15.304 2°53.79 -999 0.040767 0.206721 -1.035392
2009-04-30 07:31:14 51°15.319 2°53.778 -999 0.040664 0.206212 -1.035392
2009-04-30 07:31:19 51°15.334 2°53.765 -999 0.040664 0.206212 -1.035392
2009-04-30 07:31:24 51°15.349 2°53.753 -999 0.040561 0.205671 -1.035392
2009-04-30 07:31:29 51°15.364 2°53.741 -999 0.040252 0.204078 -1.070216
2009-04-30 07:31:34 51°15.379 2°53.729 -999 0.040869 0.207246 -1.070216
2009-04-30 07:31:39 51°15.394 2°53.716 -999 0.040664 0.206186 -1.035392
2009-04-30 07:31:43 51°15.405 2°53.706 -999 0.040561 0.205658 -1.070216
2009-04-30 07:31:49 51°15.423 2°53.691 -999 0.040561 0.205658 -1.070216
2009-04-30 07:31:54 51°15.438 2°53.679 -999 0.040252 0.204071 -1.035392
2009-04-30 07:31:59 51°15.452 2°53.667 -999 0.040149 0.203534 -1.070216
2009-04-30 07:32:03 51°15.464 2°53.657 -999 0.040561 0.205639 -1.070216
2009-04-30 07:32:09 51°15.482 2°53.643 -999 0.040561 0.205642 -1.070216
2009-04-30 07:32:14 51°15.496 2°53.631 -999 0.040767 0.206701 -1.070216
2009-04-30 07:32:19 51°15.511 2°53.619 -999 0.040355 0.204596 -1.070216
2009-04-30 07:32:24 51°15.526 2°53.608 -999 0.040355 0.204596 -1.070216
2009-04-30 07:32:29 51°15.541 2°53.597 -999 0.039635 0.200899 -1.035392
2009-04-30 07:32:34 51°15.556 2°53.585 -999 0.040869 0.207242 -1.035392
2009-04-30 07:32:39 51°15.57 2°53.574 -999 0.040561 0.205661 -1.035392
2009-04-30 07:32:44 51°15.585 2°53.562 -999 0.040355 0.204618 -1.070216
2009-04-30 07:32:49 51°15.6 2°53.551 -999 0.040355 0.204618 -1.070216
2009-04-30 07:32:54 51°15.615 2°53.539 -999 0.040972 0.207787 -1.070216
2009-04-30 07:32:59 51°15.63 2°53.528 -999 0.040252 0.2041 -1.070216
2009-04-30 07:33:04 51°15.645 2°53.517 -999 0.040869 0.207288 -1.035392
2009-04-30 07:33:09 51°15.66 2°53.506 -999 0.040252 0.204145 -1.035392
2009-04-30 07:33:14 51°15.675 2°53.496 -999 0.040972 0.207865 -1.035392
2009-04-30 07:33:19 51°15.691 2°53.486 -999 0.040972 0.207865 -1.035392
2009-04-30 07:33:23 51°15.704 2°53.479 -999 0.040972 0.207865 -1.035392
2009-04-30 07:33:29 51°15.723 2°53.466 -999 0.040458 0.205223 -1.070216
2009-04-30 07:33:34 51°15.738 2°53.456 -999 0.040869 0.207337 -1.070216
2009-04-30 07:33:39 51°15.753 2°53.446 -999 0.040767 0.206815 -1.035392
2009-04-30 07:33:44 51°15.769 2°53.435 -999 0.040149 0.203629 -1.035392
2009-04-30 07:33:49 51°15.784 2°53.425 -999 0.040767 0.206792 -1.035392
2009-04-30 07:33:54 51°15.799 2°53.415 -999 0.040767 0.206792 -1.035392
2009-04-30 07:33:59 51°15.815 2°53.404 -999 0.040664 0.206264 -1.035392
2009-04-30 07:34:03 51°15.827 2°53.396 -999 0.041281 0.209448 -1.070216
2009-04-30 07:34:09 51°15.846 2°53.384 -999 0.040561 0.205764 -1.070216
2009-04-30 07:34:14 51°15.862 2°53.373 -999 0.040458 0.205246 -1.070216
2009-04-30 07:34:19 51°15.877 2°53.362 -999 0.040972 0.207908 -1.070216
2009-04-30 07:34:24 51°15.893 2°53.352 -999 0.040972 0.207908 -1.070216
2009-04-30 07:34:29 51°15.908 2°53.341 -999 0.03984 0.20209 -1.070216
2009-04-30 07:34:34 51°15.923 2°53.33 -999 0.040355 0.204717 -1.035392
2009-04-30 07:34:39 51°15.939 2°53.319 -999 0.040972 0.207891 -1.035392
2009-04-30 07:34:44 51°15.954 2°53.309 -999 0.040972 0.207895 -1.035392
2009-04-30 07:34:49 51°15.97 2°53.298 -999 0.040972 0.207895 -1.035392
2009-04-30 07:34:54 51°15.986 2°53.287 -999 0.041075 0.208427 -1.035392
2009-04-30 07:34:59 51°16.001 2°53.276 -999 0.040458 0.205265 -1.035392
2009-04-30 07:35:03 51°16.014 2°53.268 -999 0.040458 0.205271 -1.035392
2009-04-30 07:35:09 51°16.032 2°53.256 -999 0.040869 0.207385 -1.070216
2009-04-30 07:35:14 51°16.048 2°53.245 -999 0.040458 0.205249 -1.035392
2009-04-30 07:35:19 51°16.064 2°53.235 -999 0.040458 0.205249 -1.035392
2009-04-30 07:35:24 51°16.079 2°53.224 -999 0.040355 0.204689 -1.035392
2009-04-30 07:35:29 51°16.094 2°53.213 -999 0.040561 0.205722 -1.035392
2009-04-30 07:35:34 51°16.11 2°53.202 -999 0.040972 0.207833 -1.035392
2009-04-30 07:35:39 51°16.126 2°53.192 -999 0.040972 0.207842 -1.070216
2009-04-30 07:35:43 51°16.138 2°53.183 -999 0.037782 0.191488 -1.035392
2009-04-30 07:35:49 51°16.157 2°53.171 -999 0.044677 0.22699 -1.035392
2009-04-30 07:35:54 51°16.173 2°53.162 -999 0.044677 0.22699 -1.035392
2009-04-30 07:35:59 51°16.189 2°53.154 -999 0.043545 0.221182 -1.035392
2009-04-30 07:36:03 51°16.201 2°53.148 -999 0.044574 0.226598 -1.070216
2009-04-30 07:36:09 51°16.221 2°53.142 -999 0.048073 0.244714 -1.070216
2009-04-30 07:36:14 51°16.237 2°53.136 -999 0.045294 0.230335 -1.035392
2009-04-30 07:36:19 51°16.254 2°53.132 -999 0.045294 0.230335 -1.035392
2009-04-30 07:36:23 51°16.267 2°53.128 -999 0.04478 0.227669 -1.070216
2009-04-30 07:36:29 51°16.287 2°53.125 -999 0.046118 0.2346 -1.070216
2009-04-30 07:36:34 51°16.303 2°53.124 -999 0.045809 0.233036 -1.035392
2009-04-30 07:36:39 51°16.32 2°53.123 -999 0.046632 0.237358 -1.070216
2009-04-30 07:36:44 51°16.336 2°53.123 -999 0.047147 0.240085 -1.070216
2009-04-30 07:36:49 51°16.353 2°53.123 -999 0.047147 0.240085 -1.070216
2009-04-30 07:36:54 51°16.369 2°53.124 -999 0.046118 0.234771 -1.070216
2009-04-30 07:36:59 51°16.386 2°53.125 -999 0.048073 0.24494 -1.070216
2009-04-30 07:37:04 51°16.403 2°53.126 -999 0.048896 0.24926 -1.070216
2009-04-30 07:37:09 51°16.419 2°53.127 -999 0.047353 0.241256 -1.035392
2009-04-30 07:37:14 51°16.436 2°53.129 -999 0.047147 0.240188 -1.035392
2009-04-30 07:37:19 51°16.452 2°53.13 -999 0.04972 0.253605 -1.070216
2009-04-30 07:37:24 51°16.469 2°53.131 -999 0.04972 0.253605 -1.070216
2009-04-30 07:37:29 51°16.485 2°53.132 -999 0.048279 0.246099 -1.070216
2009-04-30 07:37:34 51°16.502 2°53.132 -999 0.047558 0.24232 -1.035392
2009-04-30 07:37:39 51°16.518 2°53.133 -999 0.047764 0.243342 -1.070216
2009-04-30 07:37:44 51°16.535 2°53.133 -999 0.047456 0.241694 -1.070216
2009-04-30 07:37:49 51°16.551 2°53.134 -999 0.048073 0.244862 -1.070216
2009-04-30 07:37:54 51°16.568 2°53.135 -999 0.048073 0.244862 -1.070216
2009-04-30 07:37:59 51°16.584 2°53.135 -999 0.047661 0.242723 -1.035392
2009-04-30 07:38:04 51°16.601 2°53.135 -999 0.04797 0.24434 -1.035392
2009-04-30 07:38:09 51°16.618 2°53.136 -999 0.047661 0.242784 -1.035392
2009-04-30 07:38:14 51°16.634 2°53.136 -999 0.04725 0.24071 -1.035392
2009-04-30 07:38:19 51°16.651 2°53.137 -999 0.04725 0.24071 -1.035392
2009-04-30 07:38:23 51°16.664 2°53.137 -999 0.048279 0.246068 -1.070216
2009-04-30 07:38:29 51°16.684 2°53.138 -999 0.048485 0.247215 -1.070216
2009-04-30 07:38:34 51°16.701 2°53.138 -999 0.048588 0.247719 -1.070216
2009-04-30 07:38:39 51°16.717 2°53.139 -999 0.048485 0.247156 -1.035392
2009-04-30 07:38:44 51°16.734 2°53.139 -999 0.047661 0.242831 -1.070216
2009-04-30 07:38:49 51°16.751 2°53.14 -999 0.047661 0.242831 -1.070216
2009-04-30 07:38:54 51°16.767 2°53.14 -999 0.048073 0.244925 -1.070216
2009-04-30 07:38:59 51°16.784 2°53.141 -999 0.048279 0.245981 -1.070216
2009-04-30 07:39:04 51°16.801 2°53.142 -999 0.048485 0.247062 -1.035392
2009-04-30 07:39:09 51°16.817 2°53.142 -999 0.049102 0.250325 -1.035392
2009-04-30 07:39:14 51°16.834 2°53.143 -999 0.048485 0.247196 -1.035392
2009-04-30 07:39:19 51°16.851 2°53.143 -999 0.048485 0.247259 -1.070216
2009-04-30 07:39:23 51°16.864 2°53.144 -999 0.048485 0.247259 -1.070216
2009-04-30 07:39:29 51°16.884 2°53.144 -999 0.04797 0.24462 -1.070216
2009-04-30 07:39:34 51°16.9 2°53.145 -999 0.048279 0.246264 -1.035392
2009-04-30 07:39:39 51°16.916 2°53.145 -999 0.048896 0.249506 -1.070216
2009-04-30 07:39:44 51°16.933 2°53.145 -999 0.048485 0.247342 -1.035392
2009-04-30 07:39:49 51°16.949 2°53.145 -999 0.047558 0.242509 -1.070216
2009-04-30 07:39:54 51°16.965 2°53.146 -999 0.047558 0.242509 -1.070216
2009-04-30 07:39:59 51°16.982 2°53.147 -999 0.04869 0.248376 -1.035392
2009-04-30 07:40:04 51°16.998 2°53.148 -999 0.048896 0.249451 -1.070216
2009-04-30 07:40:09 51°17.015 2°53.148 -999 0.04797 0.244628 -1.035392
2009-04-30 07:40:14 51°17.031 2°53.149 -999 0.048073 0.245155 -1.035392
2009-04-30 07:40:19 51°17.048 2°53.149 -999 0.048073 0.245155 -1.035392
2009-04-30 07:40:23 51°17.061 2°53.15 -999 0.047867 0.24407 -1.070216
2009-04-30 07:40:29 51°17.081 2°53.15 -999 0.047867 0.24407 -1.070216
2009-04-30 07:40:34 51°17.098 2°53.15 -999 0.047867 0.244082 -1.035392
2009-04-30 07:40:39 51°17.114 2°53.15 -999 0.04869 0.248356 -1.035392
2009-04-30 07:40:43 51°17.128 2°53.15 -999 0.045706 0.232843 -1.035392
2009-04-30 07:40:49 51°17.148 2°53.151 -999 0.045706 0.232843 -1.035392
2009-04-30 07:40:54 51°17.164 2°53.152 -999 0.048176 0.245627 -1.070216
2009-04-30 07:40:59 51°17.181 2°53.155 -999 0.046529 0.237047 -1.035392
2009-04-30 07:41:04 51°17.198 2°53.157 -999 0.049308 0.251468 -1.035392
2009-04-30 07:41:09 51°17.214 2°53.161 -999 0.048588 0.247659 -1.035392
2009-04-30 07:41:14 51°17.23 2°53.164 -999 0.046529 0.236934 -1.070216
2009-04-30 07:41:19 51°17.247 2°53.169 -999 0.045809 0.23318 -1.070216
2009-04-30 07:41:24 51°17.263 2°53.173 -999 0.045809 0.23318 -1.070216
2009-04-30 07:41:29 51°17.279 2°53.178 -999 0.04869 0.248151 -1.070216
2009-04-30 07:41:34 51°17.295 2°53.186 -999 0.047867 0.243946 -1.070216
2009-04-30 07:41:39 51°17.311 2°53.192 -999 0.047661 0.24302 -1.035392
2009-04-30 07:41:44 51°17.327 2°53.2 -999 0.046015 0.234551 -1.035392
2009-04-30 07:41:49 51°17.342 2°53.208 -999 0.046015 0.234551 -1.035392
2009-04-30 07:41:54 51°17.358 2°53.216 -999 0.04972 0.253905 -1.035392
2009-04-30 07:41:59 51°17.373 2°53.226 -999 0.047764 0.243772 -1.035392
2009-04-30 07:42:04 51°17.389 2°53.235 -999 0.04725 0.241133 -1.035392
2009-04-30 07:42:09 51°17.404 2°53.245 -999 0.049411 0.252277 -1.070216
2009-04-30 07:42:14 51°17.419 2°53.255 -999 0.046529 0.237201 -1.035392
2009-04-30 07:42:19 51°17.434 2°53.266 -999 0.046529 0.237201 -1.035392
2009-04-30 07:42:24 51°17.449 2°53.277 -999 0.048999 0.249958 -1.070216
2009-04-30 07:42:29 51°17.463 2°53.29 -999 0.047661 0.242939 -1.035392
2009-04-30 07:42:34 51°17.478 2°53.302 -999 0.048073 0.245085 -1.035392
2009-04-30 07:42:39 51°17.492 2°53.315 -999 0.048896 0.249383 -1.035392
2009-04-30 07:42:43 51°17.504 2°53.325 -999 0.048485 0.247286 -1.035392
2009-04-30 07:42:49 51°17.521 2°53.341 -999 0.048896 0.249538 -1.035392
2009-04-30 07:42:54 51°17.535 2°53.355 -999 0.048896 0.249538 -1.035392
2009-04-30 07:42:59 51°17.549 2°53.368 -999 0.049102 0.250709 -1.035392
2009-04-30 07:43:03 51°17.561 2°53.379 -999 0.048485 0.247563 -1.035392
2009-04-30 07:43:09 51°17.578 2°53.395 -999 0.048485 0.247579 -1.070216
2009-04-30 07:43:14 51°17.592 2°53.408 -999 0.049411 0.25241 -1.035392
2009-04-30 07:43:19 51°17.606 2°53.422 -999 0.048073 0.245425 -1.070216
2009-04-30 07:43:24 51°17.62 2°53.435 -999 0.048073 0.245425 -1.070216
2009-04-30 07:43:29 51°17.635 2°53.448 -999 0.048073 0.245429 -1.035392
2009-04-30 07:43:34 51°17.649 2°53.461 -999 0.048896 0.249834 -1.070216
2009-04-30 07:43:39 51°17.663 2°53.474 -999 0.048073 0.245594 -1.035392
2009-04-30 07:43:43 51°17.674 2°53.484 -999 0.048176 0.246212 -1.035392
2009-04-30 07:43:49 51°17.691 2°53.5 -999 0.048176 0.246212 -1.035392
2009-04-30 07:43:54 51°17.706 2°53.513 -999 0.048279 0.246788 -1.070216
2009-04-30 07:43:59 51°17.72 2°53.525 -999 0.047558 0.243094 -1.035392
2009-04-30 07:44:04 51°17.734 2°53.538 -999 0.048999 0.25063 -1.035392
2009-04-30 07:44:09 51°17.749 2°53.551 -999 0.04797 0.24525 -1.035392
2009-04-30 07:44:14 51°17.763 2°53.564 -999 0.049617 0.253824 -1.035392
2009-04-30 07:44:19 51°17.777 2°53.576 -999 0.049617 0.253824 -1.035392
2009-04-30 07:44:24 51°17.791 2°53.589 -999 0.048896 0.250034 -1.070216
2009-04-30 07:44:29 51°17.806 2°53.602 -999 0.047456 0.242465 -1.035392
2009-04-30 07:44:34 51°17.82 2°53.614 -999 0.048485 0.247733 -1.035392
2009-04-30 07:44:39 51°17.834 2°53.628 -999 0.049205 0.251394 -1.070216
2009-04-30 07:44:44 51°17.848 2°53.641 -999 0.048176 0.245976 -1.035392
2009-04-30 07:44:49 51°17.862 2°53.654 -999 0.048073 0.245401 -1.035392
2009-04-30 07:44:54 51°17.876 2°53.667 -999 0.048073 0.245401 -1.035392
2009-04-30 07:44:59 51°17.891 2°53.681 -999 0.04869 0.248602 -1.035392
2009-04-30 07:45:03 51°17.902 2°53.691 -999 0.049925 0.255063 -1.035392
2009-04-30 07:45:09 51°17.919 2°53.707 -999 0.048176 0.246 -1.070216
2009-04-30 07:45:14 51°17.933 2°53.72 -999 0.048485 0.247674 -1.035392
2009-04-30 07:45:19 51°17.947 2°53.733 -999 0.048485 0.247674 -1.035392
2009-04-30 07:45:24 51°17.962 2°53.745 -999 0.049102 0.250978 -1.035392
2009-04-30 07:45:29 51°17.976 2°53.757 -999 0.047764 0.244065 -1.035392
2009-04-30 07:45:34 51°17.991 2°53.769 -999 0.048176 0.246244 -1.035392
2009-04-30 07:45:39 51°18.005 2°53.781 -999 0.046426 0.237136 -1.035392
2009-04-30 07:45:44 51°18.02 2°53.794 -999 0.049308 0.252176 -1.035392
2009-04-30 07:45:49 51°18.034 2°53.806 -999 0.049308 0.252176 -1.035392
2009-04-30 07:45:54 51°18.048 2°53.82 -999 0.048176 0.246314 -1.070216
2009-04-30 07:45:59 51°18.063 2°53.832 -999 0.047661 0.243634 -1.070216
2009-04-30 07:46:04 51°18.077 2°53.845 -999 0.048073 0.24579 -1.070216
2009-04-30 07:46:09 51°18.091 2°53.858 -999 0.04725 0.241491 -1.070216
2009-04-30 07:46:14 51°18.105 2°53.87 -999 0.043339 0.221144 -1.035392
2009-04-30 07:46:19 51°18.119 2°53.884 -999 0.049822 0.254853 -1.070216
2009-04-30 07:46:24 51°18.133 2°53.897 -999 0.049822 0.254853 -1.070216
2009-04-30 07:46:29 51°18.146 2°53.913 -999 0.046632 0.23819 -1.035392
2009-04-30 07:46:34 51°18.16 2°53.927 -999 0.049308 0.252152 -1.035392
2009-04-30 07:46:39 51°18.172 2°53.943 -999 0.04725 0.241406 -1.035392
2009-04-30 07:46:44 51°18.186 2°53.958 -999 0.048588 0.248388 -1.035392
2009-04-30 07:46:49 51°18.198 2°53.975 -999 0.047764 0.244061 -1.070216
2009-04-30 07:46:54 51°18.211 2°53.991 -999 0.047764 0.244061 -1.070216
2009-04-30 07:46:59 51°18.223 2°54.007 -999 0.047353 0.241934 -1.070216
2009-04-30 07:47:04 51°18.236 2°54.023 -999 0.047558 0.243017 -1.035392
2009-04-30 07:47:09 51°18.248 2°54.04 -999 0.046324 0.236578 -1.035392
2009-04-30 07:47:14 51°18.261 2°54.057 -999 0.046735 0.238729 -1.070216
2009-04-30 07:47:19 51°18.273 2°54.073 -999 0.046735 0.238729 -1.070216
2009-04-30 07:47:23 51°18.283 2°54.087 -999 0.048382 0.247324 -1.035392
2009-04-30 07:47:29 51°18.298 2°54.107 -999 0.047456 0.242512 -1.035392
2009-04-30 07:47:34 51°18.31 2°54.124 -999 0.046632 0.238225 -1.070216
2009-04-30 07:47:39 51°18.322 2°54.14 -999 0.047867 0.244675 -1.035392
2009-04-30 07:47:44 51°18.334 2°54.157 -999 0.046529 0.23772 -1.035392
2009-04-30 07:47:49 51°18.346 2°54.174 -999 0.046529 0.23772 -1.035392
2009-04-30 07:47:54 51°18.358 2°54.19 -999 0.047558 0.24309 -1.070216
2009-04-30 07:47:59 51°18.37 2°54.207 -999 0.046221 0.236115 -1.070216
2009-04-30 07:48:03 51°18.38 2°54.22 -999 0.046941 0.239873 -1.070216
2009-04-30 07:48:09 51°18.394 2°54.241 -999 0.047456 0.242574 -1.035392
2009-04-30 07:48:14 51°18.406 2°54.258 -999 0.046324 0.236687 -1.035392
2009-04-30 07:48:19 51°18.417 2°54.276 -999 0.04725 0.241537 -1.070216
2009-04-30 07:48:24 51°18.428 2°54.294 -999 0.04725 0.241537 -1.070216
2009-04-30 07:48:29 51°18.439 2°54.312 -999 0.047764 0.244221 -1.035392
2009-04-30 07:48:34 51°18.45 2°54.331 -999 0.043339 0.221189 -1.070216
2009-04-30 07:48:39 51°18.461 2°54.349 -999 0.043957 0.224372 -1.035392
2009-04-30 07:48:44 51°18.47 2°54.369 -999 0.046221 0.236085 -1.035392
2009-04-30 07:48:49 51°18.48 2°54.389 -999 0.045295 0.231255 -1.035392
2009-04-30 07:48:54 51°18.489 2°54.409 -999 0.045295 0.231255 -1.035392
2009-04-30 07:48:59 51°18.498 2°54.429 -999 0.046221 0.236062 -1.070216
2009-04-30 07:49:03 51°18.505 2°54.446 -999 0.046735 0.238779 -1.070216
2009-04-30 07:49:09 51°18.515 2°54.472 -999 0.046324 0.236676 -1.035392
2009-04-30 07:49:14 51°18.522 2°54.494 -999 0.047867 0.244749 -1.035392
2009-04-30 07:49:19 51°18.53 2°54.515 -999 0.047867 0.244749 -1.035392
2009-04-30 07:49:24 51°18.538 2°54.537 -999 0.047867 0.244796 -1.035392
2009-04-30 07:49:29 51°18.546 2°54.559 -999 0.046324 0.236782 -1.035392
2009-04-30 07:49:34 51°18.553 2°54.582 -999 0.047353 0.242116 -1.070216
2009-04-30 07:49:39 51°18.56 2°54.604 -999 0.046324 0.23674 -1.035392
2009-04-30 07:49:44 51°18.567 2°54.626 -999 0.046941 0.239957 -1.070216
2009-04-30 07:49:49 51°18.575 2°54.649 -999 0.047353 0.242108 -1.070216
2009-04-30 07:49:54 51°18.582 2°54.671 -999 0.047353 0.242108 -1.070216
2009-04-30 07:49:59 51°18.59 2°54.693 -999 0.048073 0.245869 -1.035392
2009-04-30 07:50:04 51°18.598 2°54.715 -999 0.047456 0.242683 -1.035392
2009-04-30 07:50:09 51°18.606 2°54.737 -999 0.046426 0.237336 -1.035392
2009-04-30 07:50:14 51°18.614 2°54.759 -999 0.047558 0.243242 -1.070216
2009-04-30 07:50:19 51°18.621 2°54.782 -999 0.047044 0.240573 -1.070216
2009-04-30 07:50:23 51°18.627 2°54.8 -999 0.047044 0.240573 -1.070216
2009-04-30 07:50:29 51°18.636 2°54.827 -999 0.047558 0.243273 -1.035392
2009-04-30 07:50:34 51°18.644 2°54.849 -999 0.046838 0.239509 -1.035392
2009-04-30 07:50:39 51°18.651 2°54.872 -999 0.046735 0.238966 -1.035392
2009-04-30 07:50:44 51°18.659 2°54.895 -999 0.046941 0.240003 -1.070216
2009-04-30 07:50:49 51°18.667 2°54.917 -999 0.046941 0.240003 -1.070216
2009-04-30 07:50:54 51°18.674 2°54.94 -999 0.045397 0.231959 -1.070216
2009-04-30 07:50:59 51°18.681 2°54.963 -999 0.046941 0.239999 -1.035392
2009-04-30 07:51:04 51°18.688 2°54.986 -999 0.046324 0.236805 -1.035392
2009-04-30 07:51:09 51°18.695 2°55.009 -999 0.048073 0.245944 -1.035392
2009-04-30 07:51:14 51°18.702 2°55.032 -999 0.046632 0.238445 -1.035392
2009-04-30 07:51:19 51°18.708 2°55.055 -999 0.046632 0.238445 -1.035392
2009-04-30 07:51:24 51°18.715 2°55.079 -999 0.04725 0.241669 -1.070216
2009-04-30 07:51:29 51°18.721 2°55.102 -999 0.046529 0.23791 -1.035392
2009-04-30 07:51:34 51°18.728 2°55.125 -999 0.048073 0.245959 -1.070216
2009-04-30 07:51:39 51°18.735 2°55.148 -999 0.046118 0.235753 -1.070216
2009-04-30 07:51:43 51°18.74 2°55.166 -999 0.047764 0.24433 -1.035392
2009-04-30 07:51:49 51°18.748 2°55.194 -999 0.047764 0.244334 -1.035392
2009-04-30 07:51:54 51°18.755 2°55.217 -999 0.047764 0.244334 -1.035392
2009-04-30 07:51:59 51°18.761 2°55.24 -999 0.046735 0.238947 -1.035392
2009-04-30 07:52:03 51°18.766 2°55.258 -999 0.047147 0.241105 -1.035392
2009-04-30 07:52:09 51°18.774 2°55.286 -999 0.046632 0.238434 -1.035392
2009-04-30 07:52:14 51°18.781 2°55.309 -999 0.047044 0.240596 -1.070216
2009-04-30 07:52:19 51°18.788 2°55.332 -999 0.047867 0.244898 -1.035392
2009-04-30 07:52:23 51°18.794 2°55.35 -999 0.047867 0.244898 -1.035392
2009-04-30 07:52:29 51°18.801 2°55.378 -999 0.04797 0.24545 -1.070216
2009-04-30 07:52:34 51°18.808 2°55.401 -999 0.046529 0.237933 -1.035392
2009-04-30 07:52:39 51°18.815 2°55.424 -999 0.048073 0.245991 -1.070216
2009-04-30 07:52:43 51°18.82 2°55.442 -999 0.047353 0.242247 -1.070216
2009-04-30 07:52:49 51°18.828 2°55.47 -999 0.047353 0.242247 -1.070216
2009-04-30 07:52:54 51°18.835 2°55.493 -999 0.047661 0.243841 -1.035392
2009-04-30 07:52:59 51°18.842 2°55.516 -999 0.046427 0.237389 -1.035392
2009-04-30 07:53:04 51°18.849 2°55.539 -999 0.046941 0.240053 -1.035392
2009-04-30 07:53:09 51°18.855 2°55.562 -999 0.046941 0.24003 -1.035392
2009-04-30 07:53:14 51°18.862 2°55.584 -999 0.047456 0.242706 -1.070216
2009-04-30 07:53:18 51°18.868 2°55.602 -999 0.047456 0.242706 -1.070216
2009-04-30 07:53:24 51°18.876 2°55.63 -999 0.046632 0.238404 -1.035392
2009-04-30 07:53:29 51°18.883 2°55.653 -999 0.046324 0.236789 -1.035392
2009-04-30 07:53:34 51°18.89 2°55.676 -999 0.047044 0.240562 -1.035392
2009-04-30 07:53:39 51°18.897 2°55.699 -999 0.047558 0.243258 -1.070216
2009-04-30 07:53:44 51°18.904 2°55.722 -999 0.046015 0.235247 -1.070216
2009-04-30 07:53:49 51°18.91 2°55.745 -999 0.047147 0.241163 -1.035392
2009-04-30 07:53:54 51°18.917 2°55.767 -999 0.047147 0.241163 -1.035392
2009-04-30 07:53:59 51°18.924 2°55.79 -999 0.04725 0.241738 -1.035392
2009-04-30 07:54:03 51°18.93 2°55.808 -999 0.047147 0.241221 -1.035392
2009-04-30 07:54:09 51°18.938 2°55.836 -999 0.046632 0.238548 -1.070216
2009-04-30 07:54:14 51°18.945 2°55.858 -999 0.047353 0.242329 -1.070216
2009-04-30 07:54:19 51°18.951 2°55.881 -999 0.04725 0.241804 -1.035392
2009-04-30 07:54:24 51°18.958 2°55.903 -999 0.04725 0.241804 -1.035392
2009-04-30 07:54:29 51°18.965 2°55.926 -999 0.046324 0.236956 -1.070216
2009-04-30 07:54:34 51°18.972 2°55.949 -999 0.046324 0.236941 -1.035392
2009-04-30 07:54:39 51°18.978 2°55.971 -999 0.046221 0.236401 -1.070216
2009-04-30 07:54:43 51°18.984 2°55.99 -999 0.046735 0.239077 -1.070216
2009-04-30 07:54:49 51°18.992 2°56.017 -999 0.046735 0.239077 -1.070216
2009-04-30 07:54:54 51°18.998 2°56.04 -999 0.04725 0.241765 -1.035392
2009-04-30 07:54:59 51°19.004 2°56.064 -999 0.046941 0.240168 -1.035392
2009-04-30 07:55:03 51°19.009 2°56.082 -999 0.046632 0.238571 -1.035392
2009-04-30 07:55:09 51°19.016 2°56.11 -999 0.048999 0.250944 -1.035392
2009-04-30 07:55:14 51°19.022 2°56.133 -999 0.046838 0.239674 -1.035392
2009-04-30 07:55:19 51°19.029 2°56.156 -999 0.04869 0.249344 -1.035392
2009-04-30 07:55:24 51°19.035 2°56.18 -999 0.04869 0.249344 -1.035392
2009-04-30 07:55:29 51°19.041 2°56.203 -999 0.047558 0.243425 -1.035392
2009-04-30 07:55:34 51°19.047 2°56.226 -999 0.047044 0.2407 -1.035392
2009-04-30 07:55:39 51°19.053 2°56.249 -999 0.047456 0.24283 -1.035392
2009-04-30 07:55:44 51°19.06 2°56.272 -999 0.046735 0.239042 -1.035392
2009-04-30 07:55:49 51°19.066 2°56.295 -999 0.048279 0.24708 -1.035392
2009-04-30 07:55:54 51°19.073 2°56.318 -999 0.048279 0.24708 -1.035392
2009-04-30 07:55:59 51°19.08 2°56.34 -999 0.046632 0.238495 -1.035392
2009-04-30 07:56:04 51°19.086 2°56.363 -999 0.047661 0.243864 -1.035392
2009-04-30 07:56:09 51°19.093 2°56.386 -999 0.04797 0.245509 -1.070216
2009-04-30 07:56:14 51°19.1 2°56.409 -999 0.047044 0.240697 -1.035392
2009-04-30 07:56:19 51°19.107 2°56.431 -999 0.047044 0.240697 -1.035392
2009-04-30 07:56:23 51°19.112 2°56.449 -999 0.046632 0.238564 -1.035392
2009-04-30 07:56:29 51°19.121 2°56.476 -999 0.04725 0.241781 -1.035392
2009-04-30 07:56:34 51°19.128 2°56.498 -999 0.046941 0.240195 -1.070216
2009-04-30 07:56:39 51°19.135 2°56.521 -999 0.046118 0.235922 -1.035392
2009-04-30 07:56:43 51°19.14 2°56.539 -999 0.046735 0.239134 -1.035392
2009-04-30 07:56:49 51°19.149 2°56.565 -999 0.046735 0.239134 -1.035392
2009-04-30 07:56:54 51°19.156 2°56.588 -999 0.045295 0.231627 -1.070216
2009-04-30 07:56:59 51°19.163 2°56.61 -999 0.046838 0.239686 -1.035392
2009-04-30 07:57:03 51°19.168 2°56.628 -999 0.047353 0.242395 -1.070216
2009-04-30 07:57:09 51°19.176 2°56.655 -999 0.046838 0.239728 -1.070216
2009-04-30 07:57:14 51°19.183 2°56.678 -999 0.04797 0.245631 -1.035392
2009-04-30 07:57:19 51°19.19 2°56.7 -999 0.046735 0.239207 -1.035392
2009-04-30 07:57:24 51°19.196 2°56.723 -999 0.046735 0.239207 -1.035392
2009-04-30 07:57:29 51°19.203 2°56.745 -999 0.045912 0.234907 -1.035392
2009-04-30 07:57:34 51°19.21 2°56.768 -999 0.04725 0.241858 -1.070216
2009-04-30 07:57:39 51°19.216 2°56.791 -999 0.046735 0.239165 -1.070216
2009-04-30 07:57:44 51°19.223 2°56.813 -999 0.046941 0.240214 -1.070216
2009-04-30 07:57:49 51°19.23 2°56.836 -999 0.047867 0.245035 -1.035392
2009-04-30 07:57:54 51°19.236 2°56.859 -999 0.047867 0.245035 -1.035392
2009-04-30 07:57:59 51°19.242 2°56.882 -999 0.047558 0.243429 -1.070216
2009-04-30 07:58:04 51°19.249 2°56.904 -999 0.047867 0.245055 -1.070216
2009-04-30 07:58:09 51°19.256 2°56.927 -999 0.047558 0.243441 -1.035392
2009-04-30 07:58:14 51°19.262 2°56.949 -999 0.047661 0.243974 -1.035392
2009-04-30 07:58:19 51°19.269 2°56.972 -999 0.047661 0.243974 -1.035392
2009-04-30 07:58:23 51°19.275 2°56.991 -999 0.047764 0.244502 -1.035392
2009-04-30 07:58:29 51°19.283 2°57.018 -999 0.046838 0.239689 -1.035392
2009-04-30 07:58:34 51°19.29 2°57.04 -999 0.047558 0.243464 -1.035392
2009-04-30 07:58:39 51°19.297 2°57.063 -999 0.046941 0.240245 -1.070216
2009-04-30 07:58:43 51°19.302 2°57.081 -999 0.047558 0.24348 -1.035392
2009-04-30 07:58:49 51°19.311 2°57.108 -999 0.048588 0.248887 -1.035392
2009-04-30 07:58:54 51°19.318 2°57.131 -999 0.048588 0.248887 -1.035392
2009-04-30 07:58:59 51°19.325 2°57.153 -999 0.047456 0.243005 -1.070216
2009-04-30 07:59:03 51°19.331 2°57.17 -999 0.046941 0.240322 -1.070216
2009-04-30 07:59:09 51°19.339 2°57.197 -999 0.047558 0.243534 -1.035392
2009-04-30 07:59:14 51°19.346 2°57.219 -999 0.046735 0.239245 -1.035392
2009-04-30 07:59:19 51°19.353 2°57.242 -999 0.047147 0.241407 -1.035392
2009-04-30 07:59:23 51°19.359 2°57.26 -999 0.047147 0.241407 -1.035392
2009-04-30 07:59:29 51°19.367 2°57.286 -999 0.046941 0.240345 -1.070216
2009-04-30 07:59:34 51°19.374 2°57.308 -999 0.047147 0.241418 -1.035392
2009-04-30 07:59:39 51°19.381 2°57.33 -999 0.047353 0.242492 -1.070216
2009-04-30 07:59:44 51°19.388 2°57.353 -999 0.046632 0.238743 -1.035392
2009-04-30 07:59:49 51°19.395 2°57.375 -999 0.046632 0.238743 -1.035392
2009-04-30 07:59:54 51°19.402 2°57.397 -999 0.047353 0.242504 -1.070216
2009-04-30 07:59:59 51°19.409 2°57.419 -999 0.047044 0.240893 -1.070216
2009-04-30 08:00:04 51°19.415 2°57.442 -999 0.046941 0.240349 -1.035392
2009-04-30 08:00:09 51°19.422 2°57.464 -999 0.047044 0.240878 -1.035392
2009-04-30 08:00:14 51°19.429 2°57.486 -999 0.045295 0.231753 -1.035392
2009-04-30 08:00:19 51°19.436 2°57.509 -999 0.045295 0.231753 -1.035392
2009-04-30 08:00:24 51°19.442 2°57.531 -999 0.046427 0.237663 -1.070216
2009-04-30 08:00:29 51°19.448 2°57.554 -999 0.048793 0.25003 -1.035392
2009-04-30 08:00:34 51°19.454 2°57.576 -999 0.046529 0.238211 -1.035392
2009-04-30 08:00:39 51°19.461 2°57.599 -999 0.04725 0.241959 -1.035392
2009-04-30 08:00:44 51°19.467 2°57.621 -999 0.048176 0.246785 -1.070216
2009-04-30 08:00:49 51°19.474 2°57.644 -999 0.046941 0.240345 -1.070216
2009-04-30 08:00:54 51°19.481 2°57.666 -999 0.046941 0.240345 -1.070216
2009-04-30 08:00:59 51°19.488 2°57.688 -999 0.047147 0.241422 -1.035392
2009-04-30 08:01:04 51°19.494 2°57.71 -999 0.046015 0.235507 -1.035392
2009-04-30 08:01:09 51°19.501 2°57.732 -999 0.047456 0.243033 -1.070216
2009-04-30 08:01:14 51°19.508 2°57.754 -999 0.04725 0.241963 -1.070216
2009-04-30 08:01:19 51°19.515 2°57.776 -999 0.046529 0.238195 -1.035392
2009-04-30 08:01:23 51°19.52 2°57.794 -999 0.046529 0.238195 -1.035392
2009-04-30 08:01:29 51°19.528 2°57.821 -999 0.046941 0.240357 -1.070216
2009-04-30 08:01:34 51°19.534 2°57.843 -999 0.046015 0.235518 -1.035392
2009-04-30 08:01:39 51°19.54 2°57.866 -999 0.046529 0.238214 -1.070216
2009-04-30 08:01:44 51°19.546 2°57.888 -999 0.047044 0.240928 -1.070216
2009-04-30 08:01:49 51°19.552 2°57.91 -999 0.047044 0.240928 -1.070216
2009-04-30 08:01:54 51°19.558 2°57.933 -999 0.047147 0.241476 -1.035392
2009-04-30 08:01:59 51°19.565 2°57.955 -999 0.046015 0.235579 -1.035392
2009-04-30 08:02:04 51°19.571 2°57.978 -999 0.047353 0.242558 -1.035392
2009-04-30 08:02:09 51°19.577 2°58 -999 0.047044 0.240947 -1.035392
2009-04-30 08:02:14 51°19.582 2°58.023 -999 0.048176 0.246876 -1.070216
2009-04-30 08:02:19 51°19.588 2°58.045 -999 0.047353 0.242577 -1.035392
2009-04-30 08:02:23 51°19.593 2°58.063 -999 0.047353 0.242577 -1.035392
2009-04-30 08:02:29 51°19.6 2°58.09 -999 0.047044 0.240955 -1.035392
2009-04-30 08:02:34 51°19.606 2°58.113 -999 0.046427 0.237743 -1.035392
2009-04-30 08:02:39 51°19.611 2°58.136 -999 0.047764 0.244746 -1.035392
2009-04-30 08:02:44 51°19.617 2°58.158 -999 0.046221 0.2367 -1.035392
2009-04-30 08:02:49 51°19.623 2°58.181 -999 0.046735 0.239379 -1.035392
2009-04-30 08:02:54 51°19.629 2°58.203 -999 0.046735 0.239379 -1.035392
2009-04-30 08:02:59 51°19.635 2°58.226 -999 0.046838 0.239912 -1.070216
2009-04-30 08:03:04 51°19.641 2°58.248 -999 0.046118 0.236153 -1.035392
2009-04-30 08:03:09 51°19.647 2°58.27 -999 0.047044 0.240994 -1.035392
2009-04-30 08:03:14 51°19.652 2°58.293 -999 0.046735 0.239398 -1.035392
2009-04-30 08:03:19 51°19.658 2°58.316 -999 0.046735 0.239398 -1.035392
2009-04-30 08:03:23 51°19.663 2°58.334 -999 0.046118 0.236164 -1.035392
2009-04-30 08:03:29 51°19.67 2°58.361 -999 0.046529 0.23831 -1.070216
2009-04-30 08:03:34 51°19.676 2°58.383 -999 0.046221 0.236685 -1.070216
2009-04-30 08:03:39 51°19.681 2°58.407 -999 0.046632 0.238812 -1.035392
2009-04-30 08:03:43 51°19.686 2°58.425 -999 0.045295 0.231842 -1.035392
2009-04-30 08:03:49 51°19.693 2°58.453 -999 0.045295 0.231842 -1.035392
2009-04-30 08:03:54 51°19.699 2°58.476 -999 0.046735 0.23936 -1.035392
2009-04-30 08:03:59 51°19.705 2°58.498 -999 0.047558 0.243652 -1.035392
2009-04-30 08:04:04 51°19.711 2°58.521 -999 0.0455 0.232917 -1.070216
2009-04-30 08:04:09 51°19.717 2°58.544 -999 0.047147 0.241511 -1.070216
2009-04-30 08:04:14 51°19.722 2°58.567 -999 0.046632 0.238843 -1.035392
2009-04-30 08:04:19 51°19.728 2°58.59 -999 0.046735 0.239372 -1.035392
2009-04-30 08:04:24 51°19.734 2°58.612 -999 0.046735 0.239372 -1.035392
2009-04-30 08:04:29 51°19.74 2°58.635 -999 0.046324 0.237229 -1.035392
2009-04-30 08:04:34 51°19.746 2°58.658 -999 0.047147 0.241519 -1.070216
2009-04-30 08:04:39 51°19.752 2°58.68 -999 0.046838 0.239928 -1.070216
2009-04-30 08:04:44 51°19.758 2°58.703 -999 0.047661 0.244232 -1.070216
2009-04-30 08:04:49 51°19.764 2°58.726 -999 0.045809 0.234559 -1.070216
2009-04-30 08:04:54 51°19.77 2°58.749 -999 0.045809 0.234559 -1.070216
2009-04-30 08:04:59 51°19.776 2°58.771 -999 0.047456 0.243138 -1.035392
2009-04-30 08:05:03 51°19.781 2°58.79 -999 0.046735 0.239364 -1.035392
2009-04-30 08:05:09 51°19.788 2°58.817 -999 0.047456 0.243122 -1.035392
2009-04-30 08:05:14 51°19.794 2°58.839 -999 0.047661 0.244216 -1.035392
2009-04-30 08:05:19 51°19.8 2°58.862 -999 0.047661 0.244216 -1.035392
2009-04-30 08:05:24 51°19.805 2°58.885 -999 0.046221 0.236697 -1.035392
2009-04-30 08:05:29 51°19.812 2°58.907 -999 0.047764 0.244757 -1.070216
2009-04-30 08:05:34 51°19.818 2°58.93 -999 0.046118 0.236175 -1.035392
2009-04-30 08:05:39 51°19.824 2°58.952 -999 0.047044 0.241013 -1.070216
2009-04-30 08:05:43 51°19.829 2°58.97 -999 0.045912 0.235103 -1.035392
2009-04-30 08:05:49 51°19.836 2°58.997 -999 0.045809 0.234559 -1.070216
2009-04-30 08:05:54 51°19.842 2°59.019 -999 0.045809 0.234559 -1.070216
2009-04-30 08:05:59 51°19.848 2°59.042 -999 0.044986 0.230261 -1.035392
2009-04-30 08:06:03 51°19.852 2°59.06 -999 0.048382 0.247987 -1.035392
2009-04-30 08:06:09 51°19.859 2°59.087 -999 0.047044 0.241001 -1.035392
2009-04-30 08:06:14 51°19.865 2°59.109 -999 0.047764 0.244754 -1.035392
2009-04-30 08:06:19 51°19.871 2°59.132 -999 0.046735 0.239379 -1.035392
2009-04-30 08:06:24 51°19.877 2°59.154 -999 0.046735 0.239379 -1.035392
2009-04-30 08:06:29 51°19.883 2°59.176 -999 0.046118 0.236137 -1.070216
2009-04-30 08:06:34 51°19.889 2°59.199 -999 0.047456 0.243114 -1.035392
2009-04-30 08:06:39 51°19.895 2°59.221 -999 0.045295 0.231842 -1.035392
2009-04-30 08:06:43 51°19.9 2°59.239 -999 0.046735 0.239368 -1.035392
2009-04-30 08:06:49 51°19.907 2°59.266 -999 0.046735 0.239368 -1.035392
2009-04-30 08:06:54 51°19.913 2°59.288 -999 0.046941 0.240464 -1.035392
2009-04-30 08:06:59 51°19.919 2°59.31 -999 0.047044 0.241021 -1.070216
2009-04-30 08:07:04 51°19.925 2°59.333 -999 0.046838 0.239985 -1.035392
2009-04-30 08:07:09 51°19.931 2°59.355 -999 0.046221 0.236776 -1.035392
2009-04-30 08:07:14 51°19.936 2°59.377 -999 0.04725 0.242172 -1.035392
2009-04-30 08:07:19 51°19.942 2°59.4 -999 0.04725 0.242172 -1.035392
2009-04-30 08:07:24 51°19.948 2°59.422 -999 0.046735 0.239506 -1.035392
2009-04-30 08:07:29 51°19.954 2°59.444 -999 0.047353 0.242741 -1.070216
2009-04-30 08:07:34 51°19.96 2°59.466 -999 0.046529 0.23844 -1.035392
2009-04-30 08:07:39 51°19.966 2°59.488 -999 0.046324 0.237377 -1.035392
2009-04-30 08:07:43 51°19.971 2°59.506 -999 0.045603 0.233606 -1.035392
2009-04-30 08:07:49 51°19.979 2°59.532 -999 0.047353 0.242757 -1.070216
2009-04-30 08:07:54 51°19.985 2°59.555 -999 0.047353 0.242757 -1.070216
2009-04-30 08:07:59 51°19.991 2°59.577 -999 0.045295 0.232024 -1.035392
2009-04-30 08:08:03 51°19.996 2°59.595 -999 0.046118 0.236308 -1.035392
2009-04-30 08:08:09 51°20.002 2°59.622 -999 0.047558 0.243843 -1.070216
2009-04-30 08:08:14 51°20.008 2°59.645 -999 0.045809 0.234694 -1.035392
2009-04-30 08:08:19 51°20.014 2°59.667 -999 0.046632 0.238996 -1.035392
2009-04-30 08:08:24 51°20.02 2°59.689 -999 0.046632 0.238996 -1.035392
2009-04-30 08:08:29 51°20.026 2°59.711 -999 0.047044 0.24116 -1.035392
2009-04-30 08:08:34 51°20.032 2°59.734 -999 0.045603 0.233618 -1.035392
2009-04-30 08:08:39 51°20.039 2°59.756 -999 0.046632 0.238996 -1.070216
2009-04-30 08:08:44 51°20.044 2°59.778 -999 0.045809 0.234694 -1.035392
2009-04-30 08:08:49 51°20.05 2°59.8 -999 0.045809 0.234694 -1.035392
2009-04-30 08:08:54 51°20.057 2°59.822 -999 0.046838 0.240055 -1.070216
2009-04-30 08:08:59 51°20.062 2°59.845 -999 0.045089 0.230911 -1.035392
2009-04-30 08:09:04 51°20.069 2°59.867 -999 0.047661 0.244338 -1.070216
2009-04-30 08:09:09 51°20.074 2°59.889 -999 0.046735 0.239506 -1.070216
2009-04-30 08:09:14 51°20.08 2°59.911 -999 0.045295 0.231964 -1.070216
2009-04-30 08:09:19 51°20.086 2°59.933 -999 0.046324 0.237313 -1.070216
2009-04-30 08:09:24 51°20.092 2°59.955 -999 0.046324 0.237313 -1.070216
2009-04-30 08:09:29 51°20.097 2°59.978 -999 0.045192 0.231402 -1.070216
2009-04-30 08:09:34 51°20.104 2°60 -999 0.046838 0.239997 -1.035392
2009-04-30 08:09:39 51°20.109 3°0.022 -999 0.046838 0.240024 -1.035392
2009-04-30 08:09:44 51°20.115 3°0.045 -999 0.046632 0.238946 -1.070216
2009-04-30 08:09:49 51°20.121 3°0.067 -999 0.046632 0.238969 -1.035392
2009-04-30 08:09:54 51°20.127 3°0.089 -999 0.046632 0.238969 -1.035392
2009-04-30 08:09:59 51°20.133 3°0.111 -999 0.046015 0.235756 -1.035392
2009-04-30 08:10:03 51°20.138 3°0.129 -999 0.04406 0.225555 -1.035392
2009-04-30 08:10:09 51°20.144 3°0.156 -999 0.045295 0.232013 -1.070216
2009-04-30 08:10:14 51°20.149 3°0.178 -999 0.046632 0.238996 -1.070216
2009-04-30 08:10:19 51°20.155 3°0.201 -999 0.046015 0.235782 -1.035392
2009-04-30 08:10:23 51°20.159 3°0.219 -999 0.046015 0.235782 -1.035392
2009-04-30 08:10:29 51°20.165 3°0.246 -999 0.044986 0.230419 -1.035392
2009-04-30 08:10:34 51°20.171 3°0.269 -999 0.045809 0.234705 -1.070216
2009-04-30 08:10:39 51°20.176 3°0.292 -999 0.047044 0.241171 -1.035392
2009-04-30 08:10:44 51°20.181 3°0.314 -999 0.0455 0.233119 -1.070216
2009-04-30 08:10:49 51°20.187 3°0.337 -999 0.0455 0.233119 -1.070216
2009-04-30 08:10:54 51°20.193 3°0.359 -999 0.045192 0.231502 -1.070216
2009-04-30 08:10:59 51°20.198 3°0.382 -999 0.046324 0.237423 -1.035392
2009-04-30 08:11:03 51°20.203 3°0.399 -999 0.046735 0.239579 -1.070216
2009-04-30 08:11:09 51°20.21 3°0.426 -999 0.046529 0.238516 -1.070216
2009-04-30 08:11:14 51°20.216 3°0.448 -999 0.046015 0.235839 -1.070216
2009-04-30 08:11:19 51°20.222 3°0.47 -999 0.046324 0.237457 -1.035392
2009-04-30 08:11:24 51°20.228 3°0.492 -999 0.046324 0.237457 -1.035392
2009-04-30 08:11:29 51°20.234 3°0.514 -999 0.046632 0.239076 -1.035392
2009-04-30 08:11:34 51°20.24 3°0.536 -999 0.046324 0.237488 -1.070216
2009-04-30 08:11:39 51°20.246 3°0.558 -999 0.046118 0.236414 -1.035392
2009-04-30 08:11:44 51°20.252 3°0.58 -999 0.046427 0.238033 -1.035392
2009-04-30 08:11:49 51°20.258 3°0.602 -999 0.045706 0.234259 -1.035392
2009-04-30 08:11:54 51°20.264 3°0.624 -999 0.045706 0.234259 -1.035392
2009-04-30 08:11:59 51°20.27 3°0.646 -999 0.046221 0.236943 -1.070216
2009-04-30 08:12:04 51°20.276 3°0.668 -999 0.046529 0.238562 -1.070216
2009-04-30 08:12:09 51°20.281 3°0.69 -999 0.045192 0.231573 -1.035392
2009-04-30 08:12:14 51°20.287 3°0.713 -999 0.046324 0.237473 -1.035392
2009-04-30 08:12:19 51°20.293 3°0.735 -999 0.046324 0.237473 -1.035392
2009-04-30 08:12:23 51°20.298 3°0.752 -999 0.046941 0.2407 -1.070216
2009-04-30 08:12:29 51°20.305 3°0.779 -999 0.045706 0.234259 -1.070216
2009-04-30 08:12:34 51°20.311 3°0.801 -999 0.04478 0.229428 -1.035392
2009-04-30 08:12:39 51°20.316 3°0.823 -999 0.045295 0.232109 -1.035392
2009-04-30 08:12:43 51°20.321 3°0.841 -999 0.046324 0.237488 -1.070216
2009-04-30 08:12:49 51°20.328 3°0.867 -999 0.046324 0.237488 -1.070216
2009-04-30 08:12:54 51°20.334 3°0.889 -999 0.045295 0.232109 -1.070216
2009-04-30 08:12:59 51°20.339 3°0.912 -999 0.0455 0.233178 -1.070216
2009-04-30 08:13:04 51°20.345 3°0.934 -999 0.045912 0.235329 -1.070216
2009-04-30 08:13:09 51°20.351 3°0.956 -999 0.04478 0.229417 -1.070216
2009-04-30 08:13:14 51°20.357 3°0.978 -999 0.047147 0.241775 -1.070216
2009-04-30 08:13:19 51°20.362 3°1 -999 0.044986 0.2305 -1.070216
2009-04-30 08:13:23 51°20.367 3°1.017 -999 0.044986 0.2305 -1.070216
2009-04-30 08:13:29 51°20.374 3°1.044 -999 0.046941 0.240704 -1.035392
2009-04-30 08:13:34 51°20.379 3°1.066 -999 0.046529 0.238577 -1.070216
2009-04-30 08:13:39 51°20.385 3°1.088 -999 0.044883 0.229983 -1.070216
2009-04-30 08:13:44 51°20.391 3°1.11 -999 0.046529 0.238577 -1.035392
2009-04-30 08:13:49 51°20.396 3°1.132 -999 0.045397 0.232675 -1.035392
2009-04-30 08:13:54 51°20.401 3°1.154 -999 0.045397 0.232675 -1.035392
2009-04-30 08:13:59 51°20.407 3°1.176 -999 0.044883 0.22999 -1.035392
2009-04-30 08:14:04 51°20.413 3°1.199 -999 0.046838 0.240197 -1.035392
2009-04-30 08:14:09 51°20.418 3°1.221 -999 0.045912 0.235374 -1.070216
2009-04-30 08:14:14 51°20.423 3°1.243 -999 0.046324 0.237534 -1.070216
2009-04-30 08:14:19 51°20.428 3°1.265 -999 0.046324 0.237534 -1.070216
2009-04-30 08:14:23 51°20.433 3°1.283 -999 0.046221 0.237008 -1.070216
2009-04-30 08:14:29 51°20.439 3°1.31 -999 0.046015 0.235937 -1.035392
2009-04-30 08:14:34 51°20.445 3°1.332 -999 0.044574 0.228418 -1.070216
2009-04-30 08:14:39 51°20.451 3°1.354 -999 0.046529 0.238616 -1.035392
2009-04-30 08:14:43 51°20.455 3°1.371 -999 0.045912 0.235393 -1.035392
2009-04-30 08:14:49 51°20.462 3°1.398 -999 0.045912 0.235393 -1.035392
2009-04-30 08:14:54 51°20.467 3°1.42 -999 0.046221 0.236993 -1.035392
2009-04-30 08:14:59 51°20.473 3°1.442 -999 0.046118 0.236459 -1.035392
2009-04-30 08:15:04 51°20.479 3°1.464 -999 0.046324 0.237537 -1.035392
2009-04-30 08:15:09 51°20.484 3°1.486 -999 0.045912 0.235382 -1.035392
2009-04-30 08:15:14 51°20.49 3°1.508 -999 0.046529 0.2386 -1.070216
2009-04-30 08:15:19 51°20.495 3°1.53 -999 0.046221 0.237 -1.035392
2009-04-30 08:15:23 51°20.5 3°1.548 -999 0.046221 0.237 -1.035392
2009-04-30 08:15:29 51°20.507 3°1.574 -999 0.045603 0.233779 -1.070216
2009-04-30 08:15:34 51°20.513 3°1.596 -999 0.046118 0.236456 -1.035392
2009-04-30 08:15:39 51°20.518 3°1.618 -999 0.047044 0.241307 -1.070216
2009-04-30 08:15:44 51°20.524 3°1.64 -999 0.045912 0.235389 -1.035392
2009-04-30 08:15:49 51°20.53 3°1.662 -999 0.045295 0.232169 -1.070216
2009-04-30 08:15:54 51°20.535 3°1.684 -999 0.045295 0.232169 -1.070216
2009-04-30 08:15:59 51°20.541 3°1.706 -999 0.045912 0.235393 -1.035392
2009-04-30 08:16:04 51°20.546 3°1.729 -999 0.045192 0.231628 -1.035392
2009-04-30 08:16:09 51°20.551 3°1.751 -999 0.046427 0.238098 -1.035392
2009-04-30 08:16:14 51°20.556 3°1.773 -999 0.0455 0.233279 -1.070216
2009-04-30 08:16:19 51°20.562 3°1.796 -999 0.0455 0.233279 -1.070216
2009-04-30 08:16:24 51°20.567 3°1.818 -999 0.046015 0.235968 -1.035392
2009-04-30 08:16:29 51°20.572 3°1.84 -999 0.046118 0.236512 -1.035392
2009-04-30 08:16:34 51°20.578 3°1.862 -999 0.046427 0.238128 -1.035392
2009-04-30 08:16:39 51°20.584 3°1.884 -999 0.0455 0.233294 -1.070216
2009-04-30 08:16:43 51°20.589 3°1.902 -999 0.046118 0.23652 -1.035392
2009-04-30 08:16:49 51°20.595 3°1.928 -999 0.045706 0.234368 -1.070216
2009-04-30 08:16:54 51°20.601 3°1.95 -999 0.045706 0.234368 -1.070216
2009-04-30 08:16:59 51°20.607 3°1.972 -999 0.045706 0.234372 -1.070216
2009-04-30 08:17:03 51°20.611 3°1.989 -999 0.046118 0.23652 -1.035392
2009-04-30 08:17:09 51°20.619 3°2.016 -999 0.045295 0.232232 -1.035392
2009-04-30 08:17:14 51°20.624 3°2.038 -999 0.044677 0.229002 -1.070216
2009-04-30 08:17:19 51°20.63 3°2.06 -999 0.045706 0.234379 -1.070216
2009-04-30 08:17:24 51°20.636 3°2.082 -999 0.045706 0.234379 -1.070216
2009-04-30 08:17:29 51°20.642 3°2.103 -999 0.0455 0.233298 -1.035392
2009-04-30 08:17:34 51°20.647 3°2.126 -999 0.046324 0.237602 -1.035392
2009-04-30 08:17:39 51°20.653 3°2.147 -999 0.046427 0.238159 -1.070216
2009-04-30 08:17:43 51°20.658 3°2.165 -999 0.045809 0.234928 -1.035392
2009-04-30 08:17:49 51°20.664 3°2.191 -999 0.045809 0.234928 -1.035392
2009-04-30 08:17:54 51°20.67 3°2.213 -999 0.04725 0.242472 -1.070216
2009-04-30 08:17:59 51°20.676 3°2.235 -999 0.046941 0.240858 -1.070216
2009-04-30 08:18:04 51°20.682 3°2.257 -999 0.045089 0.231177 -1.070216
2009-04-30 08:18:09 51°20.687 3°2.279 -999 0.0455 0.233309 -1.070216
2009-04-30 08:18:14 51°20.693 3°2.301 -999 0.045603 0.233857 -1.035392
2009-04-30 08:18:19 51°20.698 3°2.322 -999 0.045192 0.231706 -1.035392
2009-04-30 08:18:24 51°20.704 3°2.344 -999 0.045192 0.231706 -1.035392
2009-04-30 08:18:29 51°20.71 3°2.366 -999 0.046529 0.238696 -1.035392
2009-04-30 08:18:34 51°20.715 3°2.388 -999 0.045706 0.234402 -1.070216
2009-04-30 08:18:39 51°20.721 3°2.41 -999 0.045912 0.235465 -1.035392
2009-04-30 08:18:44 51°20.726 3°2.432 -999 0.044986 0.230637 -1.070216
2009-04-30 08:18:49 51°20.732 3°2.454 -999 0.047044 0.241385 -1.070216
2009-04-30 08:18:54 51°20.737 3°2.475 -999 0.047044 0.241385 -1.070216
2009-04-30 08:18:59 51°20.742 3°2.498 -999 0.045397 0.232776 -1.070216
2009-04-30 08:19:03 51°20.747 3°2.515 -999 0.045397 0.232787 -1.070216
2009-04-30 08:19:09 51°20.753 3°2.542 -999 0.045706 0.234398 -1.035392
2009-04-30 08:19:14 51°20.759 3°2.564 -999 0.045192 0.231718 -1.070216
2009-04-30 08:19:19 51°20.764 3°2.586 -999 0.045809 0.234943 -1.035392
2009-04-30 08:19:24 51°20.77 3°2.608 -999 0.045809 0.234943 -1.035392
2009-04-30 08:19:29 51°20.775 3°2.63 -999 0.045089 0.231192 -1.035392
2009-04-30 08:19:34 51°20.781 3°2.652 -999 0.045295 0.232265 -1.035392
2009-04-30 08:19:39 51°20.786 3°2.673 -999 0.045706 0.234417 -1.035392
2009-04-30 08:19:43 51°20.79 3°2.691 -999 0.046221 0.237114 -1.035392
2009-04-30 08:19:49 51°20.797 3°2.717 -999 0.046221 0.237114 -1.035392
2009-04-30 08:19:54 51°20.803 3°2.739 -999 0.045295 0.232273 -1.035392
2009-04-30 08:19:59 51°20.808 3°2.761 -999 0.045912 0.235502 -1.070216
2009-04-30 08:20:03 51°20.812 3°2.778 -999 0.045706 0.234432 -1.035392
2009-04-30 08:20:09 51°20.819 3°2.805 -999 0.04478 0.229601 -1.070216
2009-04-30 08:20:14 51°20.825 3°2.827 -999 0.045089 0.231218 -1.070216
2009-04-30 08:20:19 51°20.83 3°2.849 -999 0.045603 0.233925 -1.035392
2009-04-30 08:20:24 51°20.835 3°2.87 -999 0.045603 0.233925 -1.035392
2009-04-30 08:20:29 51°20.841 3°2.892 -999 0.0455 0.233395 -1.035392
2009-04-30 08:20:34 51°20.846 3°2.914 -999 0.0455 0.23338 -1.035392
2009-04-30 08:20:39 51°20.852 3°2.936 -999 0.0455 0.233373 -1.035392
2009-04-30 08:20:44 51°20.857 3°2.958 -999 0.044986 0.230681 -1.070216
2009-04-30 08:20:49 51°20.863 3°2.98 -999 0.045706 0.234458 -1.035392
2009-04-30 08:20:54 51°20.868 3°3.002 -999 0.045706 0.234458 -1.035392
2009-04-30 08:20:59 51°20.874 3°3.023 -999 0.044883 0.230167 -1.070216
2009-04-30 08:21:03 51°20.878 3°3.041 -999 0.046427 0.238224 -1.035392
2009-04-30 08:21:09 51°20.884 3°3.067 -999 0.046324 0.237694 -1.035392
2009-04-30 08:21:14 51°20.89 3°3.089 -999 0.044574 0.228539 -1.035392
2009-04-30 08:21:19 51°20.895 3°3.111 -999 0.044574 0.228539 -1.035392
2009-04-30 08:21:23 51°20.899 3°3.129 -999 0.045295 0.232277 -1.070216
2009-04-30 08:21:29 51°20.906 3°3.155 -999 0.046529 0.238738 -1.070216
2009-04-30 08:21:34 51°20.911 3°3.177 -999 0.046221 0.237111 -1.070216
2009-04-30 08:21:39 51°20.916 3°3.199 -999 0.044986 0.230663 -1.070216
2009-04-30 08:21:44 51°20.922 3°3.221 -999 0.045295 0.232262 -1.070216
2009-04-30 08:21:49 51°20.927 3°3.243 -999 0.045912 0.235487 -1.070216
2009-04-30 08:21:54 51°20.933 3°3.265 -999 0.045912 0.235487 -1.070216
2009-04-30 08:21:59 51°20.938 3°3.288 -999 0.045706 0.234421 -1.070216
2009-04-30 08:22:03 51°20.943 3°3.305 -999 0.045912 0.235502 -1.070216
2009-04-30 08:22:09 51°20.949 3°3.332 -999 0.043957 0.225315 -1.035392
2009-04-30 08:22:14 51°20.954 3°3.354 -999 0.045706 0.234488 -1.035392
2009-04-30 08:22:19 51°20.959 3°3.377 -999 0.046118 0.236626 -1.070216
2009-04-30 08:22:24 51°20.965 3°3.399 -999 0.046118 0.236626 -1.070216
2009-04-30 08:22:29 51°20.969 3°3.421 -999 0.046015 0.236074 -1.035392
2009-04-30 08:22:34 51°20.975 3°3.444 -999 0.045809 0.235014 -1.070216
2009-04-30 08:22:39 51°20.98 3°3.466 -999 0.04725 0.242558 -1.035392
2009-04-30 08:22:44 51°20.985 3°3.488 -999 0.04478 0.229663 -1.070216
2009-04-30 08:22:49 51°20.991 3°3.51 -999 0.0455 0.233433 -1.035392
2009-04-30 08:22:54 51°20.996 3°3.532 -999 0.0455 0.233433 -1.035392
2009-04-30 08:22:59 51°21.001 3°3.555 -999 0.0455 0.233444 -1.035392
2009-04-30 08:23:04 51°21.007 3°3.577 -999 0.045089 0.231296 -1.070216
2009-04-30 08:23:09 51°21.012 3°3.599 -999 0.046324 0.237736 -1.035392
2009-04-30 08:23:14 51°21.018 3°3.621 -999 0.0455 0.233436 -1.035392
2009-04-30 08:23:19 51°21.024 3°3.643 -999 0.0455 0.233436 -1.035392
2009-04-30 08:23:24 51°21.029 3°3.665 -999 0.045809 0.235041 -1.070216
2009-04-30 08:23:29 51°21.035 3°3.687 -999 0.046015 0.236119 -1.070216
2009-04-30 08:23:34 51°21.04 3°3.709 -999 0.046529 0.238815 -1.035392
2009-04-30 08:23:39 51°21.046 3°3.731 -999 0.045089 0.231288 -1.035392
2009-04-30 08:23:43 51°21.05 3°3.749 -999 0.045809 0.235052 -1.070216
2009-04-30 08:23:49 51°21.057 3°3.775 -999 0.045912 0.235593 -1.070216
2009-04-30 08:23:54 51°21.063 3°3.797 -999 0.045912 0.235593 -1.070216
2009-04-30 08:23:59 51°21.068 3°3.819 -999 0.044574 0.228612 -1.035392
2009-04-30 08:24:04 51°21.074 3°3.841 -999 0.044986 0.230755 -1.035392
2009-04-30 08:24:09 51°21.079 3°3.863 -999 0.045603 0.233992 -1.070216
2009-04-30 08:24:14 51°21.084 3°3.886 -999 0.045397 0.232907 -1.035392
2009-04-30 08:24:19 51°21.09 3°3.907 -999 0.044265 0.227003 -1.070216
2009-04-30 08:24:23 51°21.094 3°3.925 -999 0.044265 0.227003 -1.070216
2009-04-30 08:24:29 51°21.1 3°3.952 -999 0.044883 0.230237 -1.070216
2009-04-30 08:24:34 51°21.105 3°3.975 -999 0.044986 0.230788 -1.035392
2009-04-30 08:24:39 51°21.11 3°3.997 -999 0.043648 0.223814 -1.035392
2009-04-30 08:24:44 51°21.115 3°4.019 -999 0.044677 0.229174 -1.070216
2009-04-30 08:24:49 51°21.121 3°4.041 -999 0.045706 0.234545 -1.070216
2009-04-30 08:24:54 51°21.126 3°4.064 -999 0.045706 0.234545 -1.070216
2009-04-30 08:24:59 51°21.131 3°4.086 -999 0.045809 0.235082 -1.070216
2009-04-30 08:25:04 51°21.136 3°4.109 -999 0.0455 0.23347 -1.035392
2009-04-30 08:25:09 51°21.141 3°4.131 -999 0.044883 0.230252 -1.035392
2009-04-30 08:25:14 51°21.146 3°4.153 -999 0.045809 0.23509 -1.035392
2009-04-30 08:25:19 51°21.151 3°4.176 -999 0.045192 0.231866 -1.070216
2009-04-30 08:25:24 51°21.156 3°4.198 -999 0.045192 0.231866 -1.070216
2009-04-30 08:25:29 51°21.162 3°4.22 -999 0.0455 0.233489 -1.035392
2009-04-30 08:25:34 51°21.167 3°4.242 -999 0.045192 0.231881 -1.035392
2009-04-30 08:25:39 51°21.172 3°4.264 -999 0.043442 0.22276 -1.070216
2009-04-30 08:25:44 51°21.178 3°4.286 -999 0.04478 0.229729 -1.035392
2009-04-30 08:25:49 51°21.184 3°4.308 -999 0.045089 0.231351 -1.035392
2009-04-30 08:25:54 51°21.189 3°4.33 -999 0.045089 0.231351 -1.035392
2009-04-30 08:25:59 51°21.194 3°4.353 -999 0.044677 0.229218 -1.035392
2009-04-30 08:26:04 51°21.2 3°4.375 -999 0.045192 0.231888 -1.035392
2009-04-30 08:26:09 51°21.206 3°4.397 -999 0.044471 0.228134 -1.070216
2009-04-30 08:26:14 51°21.211 3°4.419 -999 0.046015 0.236199 -1.035392
2009-04-30 08:26:19 51°21.217 3°4.44 -999 0.043648 0.223836 -1.070216
2009-04-30 08:26:23 51°21.221 3°4.458 -999 0.043648 0.223836 -1.070216
2009-04-30 08:26:29 51°21.228 3°4.484 -999 0.045706 0.234571 -1.035392
2009-04-30 08:26:34 51°21.234 3°4.505 -999 0.045809 0.235109 -1.035392
2009-04-30 08:26:39 51°21.24 3°4.527 -999 0.045706 0.234567 -1.035392
2009-04-30 08:26:44 51°21.245 3°4.548 -999 0.0455 0.233493 -1.035392
2009-04-30 08:26:49 51°21.251 3°4.57 -999 0.0455 0.233493 -1.035392
2009-04-30 08:26:54 51°21.257 3°4.591 -999 0.044265 0.227043 -1.070216
2009-04-30 08:26:59 51°21.262 3°4.613 -999 0.045089 0.23134 -1.035392
2009-04-30 08:27:04 51°21.267 3°4.635 -999 0.044368 0.227586 -1.035392
2009-04-30 08:27:09 51°21.273 3°4.656 -999 0.045603 0.234045 -1.035392
2009-04-30 08:27:14 51°21.278 3°4.678 -999 0.043751 0.224372 -1.035392
2009-04-30 08:27:19 51°21.283 3°4.7 -999 0.045397 0.232967 -1.035392
2009-04-30 08:27:24 51°21.289 3°4.721 -999 0.045397 0.232967 -1.035392
2009-04-30 08:27:29 51°21.294 3°4.743 -999 0.044677 0.2292 -1.070216
2009-04-30 08:27:34 51°21.3 3°4.765 -999 0.044471 0.22813 -1.070216
2009-04-30 08:27:39 51°21.305 3°4.786 -999 0.04406 0.225988 -1.070216
2009-04-30 08:27:44 51°21.311 3°4.808 -999 0.044471 0.228141 -1.070216
2009-04-30 08:27:49 51°21.316 3°4.83 -999 0.043751 0.224383 -1.070216
2009-04-30 08:27:54 51°21.322 3°4.852 -999 0.043751 0.224383 -1.070216
2009-04-30 08:27:59 51°21.327 3°4.873 -999 0.0455 0.23353 -1.070216
2009-04-30 08:28:04 51°21.332 3°4.895 -999 0.043545 0.223328 -1.035392
2009-04-30 08:28:09 51°21.337 3°4.917 -999 0.04406 0.22601 -1.035392
2009-04-30 08:28:14 51°21.342 3°4.94 -999 0.045809 0.235146 -1.070216
2009-04-30 08:28:19 51°21.347 3°4.962 -999 0.043545 0.223328 -1.035392
2009-04-30 08:28:24 51°21.352 3°4.984 -999 0.043545 0.223328 -1.035392
2009-04-30 08:28:29 51°21.357 3°5.005 -999 0.045912 0.23568 -1.035392
2009-04-30 08:28:34 51°21.361 3°5.027 -999 0.044265 0.227094 -1.070216
2009-04-30 08:28:39 51°21.368 3°5.048 -999 0.0455 0.233534 -1.035392
2009-04-30 08:28:43 51°21.372 3°5.066 -999 0.044574 0.2287 -1.035392
2009-04-30 08:28:49 51°21.378 3°5.092 -999 0.044574 0.2287 -1.035392
2009-04-30 08:28:54 51°21.383 3°5.113 -999 0.043751 0.224404 -1.070216
2009-04-30 08:28:59 51°21.388 3°5.135 -999 0.044986 0.23084 -1.070216
2009-04-30 08:29:04 51°21.393 3°5.157 -999 0.044883 0.230322 -1.035392
2009-04-30 08:29:09 51°21.398 3°5.178 -999 0.044677 0.229244 -1.035392
2009-04-30 08:29:14 51°21.403 3°5.2 -999 0.044986 0.230866 -1.070216
2009-04-30 08:29:19 51°21.408 3°5.222 -999 0.043442 0.222814 -1.035392
2009-04-30 08:29:24 51°21.413 3°5.243 -999 0.043442 0.222814 -1.035392
2009-04-30 08:29:29 51°21.418 3°5.265 -999 0.044574 0.228726 -1.035392
2009-04-30 08:29:34 51°21.423 3°5.287 -999 0.045089 0.231422 -1.070216
2009-04-30 08:29:39 51°21.428 3°5.308 -999 0.044574 0.228737 -1.035392
2009-04-30 08:29:44 51°21.433 3°5.33 -999 0.043339 0.222295 -1.035392
2009-04-30 08:29:49 51°21.438 3°5.351 -999 0.044574 0.22874 -1.035392
2009-04-30 08:29:54 51°21.444 3°5.373 -999 0.044574 0.22874 -1.035392
2009-04-30 08:29:59 51°21.448 3°5.395 -999 0.045089 0.23144 -1.035392
2009-04-30 08:30:04 51°21.453 3°5.416 -999 0.045295 0.232526 -1.070216
2009-04-30 08:30:09 51°21.458 3°5.438 -999 0.045397 0.233064 -1.035392
2009-04-30 08:30:14 51°21.464 3°5.46 -999 0.044986 0.230903 -1.035392
2009-04-30 08:30:19 51°21.469 3°5.481 -999 0.044986 0.230903 -1.035392
2009-04-30 08:30:24 51°21.474 3°5.503 -999 0.044265 0.227137 -1.070216
2009-04-30 08:30:29 51°21.479 3°5.525 -999 0.044883 0.230351 -1.035392
2009-04-30 08:30:34 51°21.484 3°5.547 -999 0.044883 0.230355 -1.070216
2009-04-30 08:30:39 51°21.489 3°5.569 -999 0.044677 0.229281 -1.035392
2009-04-30 08:30:43 51°21.493 3°5.586 -999 0.044368 0.227678 -1.035392
2009-04-30 08:30:49 51°21.499 3°5.612 -999 0.044265 0.227137 -1.035392
2009-04-30 08:30:54 51°21.504 3°5.634 -999 0.044265 0.227137 -1.035392
2009-04-30 08:30:59 51°21.509 3°5.656 -999 0.046324 0.2379 -1.070216
2009-04-30 08:31:03 51°21.513 3°5.673 -999 0.044368 0.227689 -1.070216
2009-04-30 08:31:09 51°21.52 3°5.7 -999 0.045192 0.231996 -1.070216
2009-04-30 08:31:14 51°21.525 3°5.721 -999 0.044883 0.230385 -1.035392
2009-04-30 08:31:19 51°21.53 3°5.743 -999 0.045706 0.234673 -1.070216
2009-04-30 08:31:24 51°21.536 3°5.764 -999 0.045706 0.234673 -1.070216
2009-04-30 08:31:29 51°21.541 3°5.785 -999 0.044986 0.230903 -1.035392
2009-04-30 08:31:34 51°21.547 3°5.806 -999 0.043545 0.223371 -1.035392
2009-04-30 08:31:39 51°21.553 3°5.826 -999 0.045192 0.231963 -1.070216
2009-04-30 08:31:44 51°21.558 3°5.846 -999 0.04478 0.229811 -1.035392
2009-04-30 08:31:49 51°21.564 3°5.864 -999 0.044986 0.230888 -1.070216
2009-04-30 08:31:54 51°21.569 3°5.882 -999 0.044986 0.230888 -1.070216
2009-04-30 08:31:59 51°21.574 3°5.9 -999 0.046324 0.237892 -1.035392
2009-04-30 08:32:04 51°21.578 3°5.917 -999 0.045603 0.234131 -1.035392
2009-04-30 08:32:09 51°21.582 3°5.933 -999 0.045912 0.235752 -1.035392
2009-04-30 08:32:14 51°21.586 3°5.948 -999 0.046529 0.238992 -1.070216
2009-04-30 08:32:19 51°21.59 3°5.963 -999 0.046529 0.238992 -1.070216
2009-04-30 08:32:23 51°21.592 3°5.975 -999 0.046941 0.241161 -1.070216
2009-04-30 08:32:29 51°21.596 3°5.991 -999 0.046632 0.239561 -1.035392
2009-04-30 08:32:34 51°21.599 3°6.005 -999 0.046529 0.239034 -1.035392
2009-04-30 08:32:39 51°21.603 3°6.018 -999 0.04725 0.242812 -1.070216
2009-04-30 08:32:44 51°21.606 3°6.031 -999 0.04725 0.242824 -1.035392
2009-04-30 08:32:49 51°21.609 3°6.043 -999 0.047147 0.242289 -1.035392
2009-04-30 08:32:54 51°21.611 3°6.056 -999 0.047147 0.242289 -1.035392
2009-04-30 08:32:59 51°21.615 3°6.068 -999 0.047764 0.24553 -1.070216
2009-04-30 08:33:03 51°21.617 3°6.078 -999 0.047456 0.243917 -1.035392
2009-04-30 08:33:09 51°21.621 3°6.092 -999 0.048588 0.24985 -1.035392
2009-04-30 08:33:14 51°21.624 3°6.103 -999 0.047764 0.245534 -1.035392
2009-04-30 08:33:19 51°21.627 3°6.114 -999 0.046941 0.241215 -1.070216
2009-04-30 08:33:24 51°21.63 3°6.126 -999 0.046941 0.241215 -1.070216
2009-04-30 08:33:29 51°21.633 3°6.137 -999 0.04725 0.242827 -1.035392
2009-04-30 08:33:34 51°21.636 3°6.147 -999 0.048485 0.249306 -1.035392
2009-04-30 08:33:39 51°21.639 3°6.158 -999 0.04972 0.255799 -1.070216
2009-04-30 08:33:44 51°21.642 3°6.17 -999 0.048588 0.249862 -1.070216
2009-04-30 08:33:49 51°21.646 3°6.182 -999 0.047353 0.24337 -1.070216
2009-04-30 08:33:54 51°21.65 3°6.194 -999 0.047353 0.24337 -1.070216
2009-04-30 08:33:59 51°21.653 3°6.206 -999 0.048073 0.24714 -1.035392
2009-04-30 08:34:04 51°21.657 3°6.219 -999 0.047559 0.244436 -1.035392
2009-04-30 08:34:09 51°21.66 3°6.232 -999 0.048485 0.249294 -1.070216
2009-04-30 08:34:14 51°21.664 3°6.245 -999 0.048073 0.24714 -1.070216
2009-04-30 08:34:19 51°21.668 3°6.259 -999 0.048073 0.24714 -1.070216
2009-04-30 08:34:24 51°21.672 3°6.273 -999 0.048382 0.248763 -1.070216
2009-04-30 08:34:29 51°21.676 3°6.289 -999 0.048073 0.247148 -1.070216
2009-04-30 08:34:34 51°21.68 3°6.305 -999 0.048793 0.250925 -1.035392
2009-04-30 08:34:39 51°21.685 3°6.323 -999 0.048073 0.24714 -1.070216
2009-04-30 08:34:44 51°21.69 3°6.341 -999 0.047353 0.243355 -1.035392
2009-04-30 08:34:49 51°21.695 3°6.36 -999 0.047044 0.241738 -1.035392
2009-04-30 08:34:54 51°21.7 3°6.38 -999 0.047044 0.241738 -1.035392
2009-04-30 08:34:59 51°21.705 3°6.4 -999 0.046735 0.240111 -1.035392
2009-04-30 08:35:03 51°21.71 3°6.416 -999 0.046838 0.240645 -1.070216
2009-04-30 08:35:09 51°21.716 3°6.441 -999 0.046118 0.236881 -1.070216
2009-04-30 08:35:14 51°21.722 3°6.462 -999 0.045397 0.233097 -1.035392
2009-04-30 08:35:19 51°21.728 3°6.483 -999 0.046529 0.239023 -1.070216
2009-04-30 08:35:23 51°21.732 3°6.499 -999 0.046529 0.239023 -1.070216
2009-04-30 08:35:29 51°21.739 3°6.525 -999 0.046221 0.237423 -1.035392
2009-04-30 08:35:34 51°21.745 3°6.546 -999 0.041899 0.214859 -1.035392
2009-04-30 08:35:39 51°21.75 3°6.567 -999 0.044677 0.229321 -1.035392
2009-04-30 08:35:44 51°21.755 3°6.589 -999 0.042928 0.220187 -1.035392
2009-04-30 08:35:49 51°21.759 3°6.611 -999 0.042928 0.220187 -1.035392
2009-04-30 08:35:54 51°21.763 3°6.633 -999 0.045192 0.232004 -1.035392